Boston Pilot Mystic — VHF20 — position and weather

sailwx.info

Track history (hours):
 
Tides and Currents Weather Stations Pressure Air Temp Water Temp Dewpoint Dewpoint Depression Visibility Wind Speed Wind Dir Waves Ship Positions

Boston Pilot Mystic

Last reported at 2018-Apr-26 01:30 UTC. Time now 2018-Apr-26 01:39 UTC.
Position N 42°22' W 071°02'.

Length 16 m; draft 1.5 m.

Type: Pilot. MMSI: 367029020.

Date/timePositionNaut miles runAvg speedWind from/ knotsBaromVisibWave heightAir tempDewpointWater temp
2018-Apr-26 01:30N 42°22' W 071°02'0 0.0
2018-Apr-26 01:00N 42°22' W 071°02'0 0.0
2018-Apr-26 00:31N 42°22' W 071°02'043.2
2018-Apr-26 00:31N 42°22' W 071°02'0 0.0
2018-Apr-26 00:00N 42°22' W 071°02'064.8
2018-Apr-26 00:00N 42°22' W 071°02'0 0.0
2018-Apr-25 23:30N 42°22' W 071°02'0 0.0
2018-Apr-25 23:00N 42°22' W 071°02'0 0.0
2018-Apr-25 22:30N 42°22' W 071°02'0 0.0
2018-Apr-25 22:00N 42°22' W 071°02'0 0.0
2018-Apr-25 21:31N 42°22' W 071°02'0 0.0
2018-Apr-25 21:00N 42°22' W 071°02'0 0.0
2018-Apr-25 20:30N 42°22' W 071°02'0 0.0
2018-Apr-25 20:00N 42°22' W 071°02'0 0.0
2018-Apr-25 19:30N 42°22' W 071°02'064.8
2018-Apr-25 19:30N 42°22' W 071°02'0 0.0
2018-Apr-25 19:00N 42°22' W 071°02'0 0.0
2018-Apr-25 18:31N 42°22' W 071°02'064.8
2018-Apr-25 18:31N 42°22' W 071°02'0 0.0
2018-Apr-25 17:04N 42°22' W 071°02'0 0.0
2018-Apr-25 16:54N 42°22' W 071°02'0 0.0
2018-Apr-25 14:17N 42°22' W 071°02'0 0.0
2018-Apr-25 13:46N 42°22' W 071°02'0 0.0
2018-Apr-25 13:25N 42°22' W 071°02'0 0.0
2018-Apr-25 12:55N 42°22' W 071°02'0 0.0
2018-Apr-25 12:27N 42°22' W 071°02'0 0.0
2018-Apr-25 12:00N 42°22' W 071°02'0 0.1
2018-Apr-25 11:51N 42°22' W 071°02'0 0.9
2018-Apr-25 11:30N 42°22' W 071°02'0 4.8
2018-Apr-25 11:26N 42°22' W 071°02'0 0.0
2018-Apr-25 11:00N 42°22' W 071°02'12348.0
2018-Apr-25 11:00N 42°22' W 071°03'1 1.3
2018-Apr-25 10:30N 42°22' W 071°02'0 0.0
2018-Apr-25 10:01N 42°22' W 071°02'0 0.0
2018-Apr-25 09:31N 42°22' W 071°02'516283.9
2018-Apr-25 09:31N 42°21' W 070°56'5 8.9
2018-Apr-25 09:00N 42°22' W 071°02'0 0.0
2018-Apr-25 08:30N 42°22' W 071°02'0 0.0
2018-Apr-25 08:00N 42°22' W 071°02'0 0.0
2018-Apr-25 07:30N 42°22' W 071°02'0 0.0
2018-Apr-25 07:00N 42°22' W 071°02'0 0.0
2018-Apr-25 06:30N 42°22' W 071°02'0 0.0
2018-Apr-25 06:00N 42°22' W 071°02'0 0.0
2018-Apr-25 05:30N 42°22' W 071°02'0 5.4
2018-Apr-25 05:30N 42°22' W 071°02'0 0.0
2018-Apr-25 05:00N 42°22' W 071°02'016.7
2018-Apr-25 05:00N 42°22' W 071°02'0 0.0
2018-Apr-25 04:30N 42°22' W 071°02'0 1.2
2018-Apr-25 04:29N 42°22' W 071°02'0 0.0
2018-Apr-25 04:00N 42°22' W 071°02'0 3.6
2018-Apr-25 04:00N 42°22' W 071°02'0 0.0
2018-Apr-25 03:30N 42°22' W 071°02'010.8
2018-Apr-25 03:30N 42°22' W 071°02'0 0.0
2018-Apr-25 03:00N 42°22' W 071°02'0 8.1
2018-Apr-25 03:00N 42°22' W 071°02'0 0.0
2018-Apr-25 02:30N 42°22' W 071°02'0 4.3
2018-Apr-25 02:30N 42°22' W 071°02'0 0.0
2018-Apr-25 02:00N 42°22' W 071°02'0 0.0
2018-Apr-25 01:30N 42°22' W 071°02'0 0.0
2018-Apr-25 01:00N 42°22' W 071°02'033.4
2018-Apr-25 01:00N 42°22' W 071°02'0 0.0
2018-Apr-25 00:30N 42°22' W 071°02'1804.1
2018-Apr-25 00:30N 42°21' W 071°01'1 2.7
2018-Apr-25 00:00N 42°22' W 071°02'4249.0
2018-Apr-24 23:59N 42°20' W 070°57'4 7.7
2018-Apr-24 23:30N 42°22' W 071°02'0 0.0
2018-Apr-24 23:00N 42°22' W 071°02'62075.6
2018-Apr-24 23:00N 42°22' W 070°54'0 0.7
2018-Apr-24 22:30N 42°23' W 070°54'63596.1
2018-Apr-24 22:30N 42°22' W 071°02'918.9
2018-Apr-24 22:00N 42°25' W 070°50'93361.2
2018-Apr-24 22:00N 42°22' W 071°02'0 0.0
2018-Apr-24 21:30N 42°22' W 071°02'0 0.0
2018-Apr-24 21:00N 42°22' W 071°02'0 0.0
2018-Apr-24 20:30N 42°22' W 071°02'0 0.0
2018-Apr-24 20:00N 42°22' W 071°02'0 0.0
2018-Apr-24 19:30N 42°22' W 071°02'064.8
2018-Apr-24 19:30N 42°22' W 071°02'0 0.0
2018-Apr-24 19:00N 42°22' W 071°02'0 0.0
2018-Apr-24 18:31N 42°22' W 071°02'0 0.0
2018-Apr-24 18:00N 42°22' W 071°02'0 0.0
2018-Apr-24 17:30N 42°22' W 071°02'064.8
2018-Apr-24 17:30N 42°22' W 071°02'0 0.0
2018-Apr-24 17:00N 42°22' W 071°02'043.2
2018-Apr-24 17:00N 42°22' W 071°02'2 4.3
2018-Apr-24 16:30N 42°20' W 070°60'4 8.9
2018-Apr-24 16:00N 42°22' W 070°54'621275.3
2018-Apr-24 16:00N 42°22' W 071°02'0 0.0
2018-Apr-24 15:31N 42°22' W 071°02'10402.4
2018-Apr-24 15:29N 42°23' W 070°48'1020.9
2018-Apr-24 15:00N 42°22' W 071°02'7378.6
2018-Apr-24 14:59N 42°23' W 070°53'713.8
2018-Apr-24 14:30N 42°21' W 071°01'14391.0
2018-Apr-24 14:30N 42°22' W 071°02'0 0.0
2018-Apr-24 14:00N 42°22' W 071°02'0 0.0
2018-Apr-24 13:30N 42°22' W 071°02'0 0.0
2018-Apr-24 13:00N 42°22' W 071°02'0 0.0
2018-Apr-24 12:30N 42°22' W 071°02'0 0.0
2018-Apr-24 12:00N 42°22' W 071°02'064.8
2018-Apr-24 12:00N 42°22' W 071°02'0 0.0
2018-Apr-24 11:30N 42°22' W 071°02'0 0.0
2018-Apr-24 11:00N 42°22' W 071°02'0 0.0
2018-Apr-24 10:30N 42°22' W 071°02'0 8.1
2018-Apr-24 10:30N 42°22' W 071°02'0 0.0
2018-Apr-24 10:00N 42°22' W 071°02'0 0.0
2018-Apr-24 09:30N 42°22' W 071°02'0 1.7
2018-Apr-24 09:30N 42°22' W 071°02'0 0.0
2018-Apr-24 09:00N 42°22' W 071°02'0 0.0
2018-Apr-24 08:30N 42°22' W 071°02'0 0.0
2018-Apr-24 08:00N 42°22' W 071°02'0 0.0
2018-Apr-24 07:30N 42°22' W 071°02'0 0.0
2018-Apr-24 07:01N 42°22' W 071°02'0 0.0
2018-Apr-24 06:30N 42°22' W 071°02'0 0.0
2018-Apr-24 06:00N 42°22' W 071°02'043.2
2018-Apr-24 06:00N 42°22' W 071°02'0 0.0
2018-Apr-24 05:30N 42°22' W 071°02'043.2
2018-Apr-24 05:30N 42°22' W 071°02'0 0.0
2018-Apr-24 05:00N 42°22' W 071°02'0 0.0
2018-Apr-24 04:30N 42°22' W 071°02'0 0.0
2018-Apr-24 04:00N 42°22' W 071°02'0 0.0
2018-Apr-24 03:30N 42°22' W 071°02'0 1.3
2018-Apr-24 03:30N 42°22' W 071°02'0 0.0
2018-Apr-24 03:00N 42°22' W 071°02'0 0.0
2018-Apr-24 02:30N 42°22' W 071°02'0 0.0
2018-Apr-24 02:00N 42°22' W 071°02'0 0.0
2018-Apr-24 01:30N 42°22' W 071°02'0 0.0
2018-Apr-24 01:00N 42°22' W 071°02'0 1.4
2018-Apr-24 01:00N 42°22' W 071°02'0 0.0
2018-Apr-24 00:30N 42°22' W 071°02'0 0.0
2018-Apr-24 00:00N 42°22' W 071°02'0 0.0
2018-Apr-23 23:30N 42°22' W 071°02'064.8
2018-Apr-23 23:30N 42°22' W 071°02'0 0.0
2018-Apr-23 23:00N 42°22' W 071°02'0 5.9
2018-Apr-23 23:00N 42°22' W 071°02'0 0.0
2018-Apr-23 22:30N 42°22' W 071°02'0 0.0
2018-Apr-23 22:00N 42°22' W 071°02'021.6
2018-Apr-23 22:00N 42°22' W 071°02'0 0.0
2018-Apr-23 21:30N 42°22' W 071°02'0 3.6
2018-Apr-23 21:30N 42°22' W 071°02'0 0.0
2018-Apr-23 21:00N 42°22' W 071°02'0 0.0
2018-Apr-23 20:30N 42°22' W 071°02'0 0.0
2018-Apr-23 20:00N 42°22' W 071°02'96237.0
2018-Apr-23 20:00N 42°24' W 070°50'917.4
2018-Apr-23 19:30N 42°22' W 071°02'0 0.0
2018-Apr-23 19:00N 42°22' W 071°02'3 7.0
2018-Apr-23 18:30N 42°20' W 070°58'3 6.9
2018-Apr-23 18:00N 42°22' W 071°02'0 0.0
2018-Apr-23 17:30N 42°22' W 071°02'0 0.0
2018-Apr-23 17:00N 42°22' W 071°02'0 0.0
2018-Apr-23 16:30N 42°22' W 071°02'0 0.0
2018-Apr-23 16:00N 42°22' W 071°02'0 0.0
2018-Apr-23 15:30N 42°22' W 071°02'0 0.0
2018-Apr-23 15:01N 42°22' W 071°02'0 7.2
2018-Apr-23 15:00N 42°22' W 071°02'0 0.0
2018-Apr-23 14:30N 42°22' W 071°02'0 0.0
2018-Apr-23 14:00N 42°22' W 071°02'064.8
2018-Apr-23 14:00N 42°22' W 071°02'0 0.0
2018-Apr-23 13:31N 42°22' W 071°02'0 0.0
2018-Apr-23 13:01N 42°22' W 071°02'34742.6
2018-Apr-23 13:00N 42°20' W 070°59'3 5.3
2018-Apr-23 12:30N 42°22' W 071°02'0 9.0
2018-Apr-23 12:30N 42°22' W 071°02'0 0.0
2018-Apr-23 12:00N 42°22' W 071°02'0 8.0
2018-Apr-23 12:00N 42°22' W 071°02'0 0.0
2018-Apr-23 11:30N 42°22' W 071°02'0 8.0
2018-Apr-23 11:30N 42°22' W 071°02'1 2.7
2018-Apr-23 11:01N 42°23' W 071°03'11210.0
2018-Apr-23 11:00N 42°22' W 071°02'0 0.0
2018-Apr-23 10:30N 42°22' W 071°02'3516.7
2018-Apr-23 10:30N 42°20' W 070°60'3 5.2
2018-Apr-23 10:00N 42°22' W 071°02'7819.0
2018-Apr-23 10:00N 42°16' W 070°56'714.8
2018-Apr-23 09:30N 42°22' W 071°02'71747.7
2018-Apr-23 09:30N 42°17' W 070°56'713.7
2018-Apr-23 09:00N 42°22' W 071°02'56407.1
2018-Apr-23 09:00N 42°22' W 070°55'510.7
2018-Apr-23 08:30N 42°22' W 071°02'0 0.0
2018-Apr-23 08:00N 42°22' W 071°02'0 2.7
2018-Apr-23 08:00N 42°22' W 071°02'0 0.0
2018-Apr-23 07:30N 42°22' W 071°02'0 2.4
2018-Apr-23 07:30N 42°22' W 071°02'0 0.0
2018-Apr-23 07:00N 42°22' W 071°02'016.0
2018-Apr-23 07:00N 42°22' W 071°02'0 0.0
2018-Apr-23 06:30N 42°22' W 071°02'0 0.0
2018-Apr-23 06:30N 42°22' W 071°02'0 0.0
2018-Apr-23 06:00N 42°22' W 071°02'0 5.3
2018-Apr-23 06:00N 42°22' W 071°02'0 0.0
2018-Apr-23 05:30N 42°22' W 071°02'0 0.0
2018-Apr-23 05:00N 42°22' W 071°02'0 0.0
2018-Apr-23 04:30N 42°22' W 071°02'0 0.0
2018-Apr-23 04:00N 42°22' W 071°02'0 1.1
2018-Apr-23 04:00N 42°22' W 071°02'0 0.0
2018-Apr-23 03:31N 42°22' W 071°02'016.0
2018-Apr-23 03:30N 42°22' W 071°02'0 0.0
2018-Apr-23 03:00N 42°22' W 071°02'0 1.8
2018-Apr-23 03:00N 42°22' W 071°02'0 0.0
2018-Apr-23 02:30N 42°22' W 071°02'0 0.0
2018-Apr-23 02:00N 42°22' W 071°02'0 2.0
2018-Apr-23 02:00N 42°22' W 071°02'0 0.0
2018-Apr-23 01:31N 42°22' W 071°02'0 0.4
2018-Apr-23 01:30N 42°22' W 071°02'0 0.0
2018-Apr-23 01:01N 42°22' W 071°02'0 0.5
2018-Apr-23 01:00N 42°22' W 071°02'0 0.0
2018-Apr-23 00:30N 42°22' W 071°02'0 0.0
2018-Apr-23 00:01N 42°22' W 071°02'010.8
2018-Apr-23 00:00N 42°22' W 071°02'0 0.0
2018-Apr-22 23:30N 42°22' W 071°02'0 3.4
2018-Apr-22 23:30N 42°22' W 071°02'0 0.0
2018-Apr-22 23:01N 42°22' W 071°02'0 2.7
2018-Apr-22 23:00N 42°22' W 071°02'0 0.0
2018-Apr-22 22:30N 42°22' W 071°02'0 1.8
2018-Apr-22 22:30N 42°22' W 071°02'0 0.0
2018-Apr-22 22:01N 42°22' W 071°02'0 6.7
2018-Apr-22 22:00N 42°22' W 071°02'0 0.0
2018-Apr-22 21:30N 42°22' W 071°02'026.9
2018-Apr-22 21:30N 42°22' W 071°02'0 0.0
2018-Apr-22 21:00N 42°22' W 071°02'0 2.0
2018-Apr-22 21:00N 42°22' W 071°02'0 0.0
2018-Apr-22 20:30N 42°22' W 071°02'0 3.8
2018-Apr-22 20:30N 42°22' W 071°02'0 0.0
2018-Apr-22 20:00N 42°22' W 071°02'016.0
2018-Apr-22 20:00N 42°22' W 071°02'0 0.0
2018-Apr-22 19:30N 42°22' W 071°02'0 0.0
2018-Apr-22 19:00N 42°22' W 071°02'95302.4
2018-Apr-22 19:00N 42°22' W 070°50'917.7
2018-Apr-22 18:30N 42°22' W 071°02'6376.7
2018-Apr-22 18:29N 42°19' W 070°54'613.3
2018-Apr-22 18:00N 42°22' W 071°02'0 0.0
2018-Apr-22 17:30N 42°22' W 071°02'0 0.0
2018-Apr-22 17:00N 42°22' W 071°02'6173.0
2018-Apr-22 16:58N 42°17' W 070°56'613.7
2018-Apr-22 16:30N 42°22' W 071°02'726753.8
2018-Apr-22 16:30N 42°15' W 070°58'2 3.6
2018-Apr-22 16:01N 42°16' W 070°56'78598.2
2018-Apr-22 16:00N 42°22' W 071°02'0 0.0
2018-Apr-22 15:30N 42°22' W 071°02'0 0.0
2018-Apr-22 15:00N 42°22' W 071°02'0 9.0
2018-Apr-22 15:00N 42°22' W 071°02'0 0.0
2018-Apr-22 14:30N 42°22' W 071°02'0 0.0
2018-Apr-22 14:01N 42°22' W 071°02'0 5.3
2018-Apr-22 14:00N 42°22' W 071°02'0 0.0
2018-Apr-22 13:30N 42°22' W 071°02'0 0.0
2018-Apr-22 13:00N 42°22' W 071°02'013.4
2018-Apr-22 13:00N 42°22' W 071°02'0 0.0
2018-Apr-22 12:30N 42°22' W 071°02'0 0.0
2018-Apr-22 12:00N 42°22' W 071°02'0 8.0
2018-Apr-22 12:00N 42°22' W 071°02'0 0.0
2018-Apr-22 11:30N 42°22' W 071°02'016.0
2018-Apr-22 11:30N 42°22' W 071°02'0 0.0
2018-Apr-22 11:00N 42°22' W 071°02'010.8
2018-Apr-22 11:00N 42°22' W 071°02'0 0.0
2018-Apr-22 10:30N 42°22' W 071°02'0 1.3
2018-Apr-22 10:30N 42°22' W 071°02'0 0.0
2018-Apr-22 10:01N 42°22' W 071°02'016.0
2018-Apr-22 10:00N 42°22' W 071°02'0 0.0
2018-Apr-22 09:30N 42°22' W 071°02'0 0.9
2018-Apr-22 09:30N 42°22' W 071°02'0 0.0
2018-Apr-22 09:00N 42°22' W 071°02'0 0.0
2018-Apr-22 09:00N 42°22' W 071°02'0 0.0
2018-Apr-22 08:30N 42°22' W 071°02'0 0.0
2018-Apr-22 08:30N 42°22' W 071°02'0 0.0
2018-Apr-22 08:01N 42°22' W 071°02'0 0.0
2018-Apr-22 08:01N 42°22' W 071°02'0 0.0
2018-Apr-22 07:30N 42°22' W 071°02'0 0.0
2018-Apr-22 07:00N 42°22' W 071°02'0 8.0
2018-Apr-22 07:00N 42°22' W 071°02'0 0.0
2018-Apr-22 06:30N 42°22' W 071°02'0 0.3
2018-Apr-22 06:29N 42°22' W 071°02'0 0.0
2018-Apr-22 05:59N 42°22' W 071°02'0 0.0
2018-Apr-22 05:30N 42°22' W 071°02'5246.9
2018-Apr-22 05:29N 42°22' W 070°55'510.2
2018-Apr-22 05:00N 42°22' W 071°02'0 2.0
2018-Apr-22 04:53N 42°22' W 071°02'0 0.6
2018-Apr-22 04:30N 42°22' W 071°02'0 4.7
2018-Apr-22 04:28N 42°22' W 071°02'0 0.3
2018-Apr-22 04:00N 42°22' W 071°02'0 1.8
2018-Apr-22 04:00N 42°22' W 071°02'0 0.0
2018-Apr-22 03:30N 42°22' W 071°02'0 0.9
2018-Apr-22 03:29N 42°22' W 071°02'0 0.0
2018-Apr-22 02:56N 42°22' W 071°02'0 0.4
2018-Apr-22 02:55N 42°22' W 071°02'0 0.0
2018-Apr-22 02:30N 42°22' W 071°02'0 0.3
2018-Apr-22 02:29N 42°22' W 071°02'0 0.3
2018-Apr-22 02:00N 42°22' W 071°02'019.9
2018-Apr-22 02:00N 42°22' W 071°02'613.0
2018-Apr-22 01:30N 42°22' W 070°53'6949.0
2018-Apr-22 01:30N 42°22' W 071°02'4 7.5
2018-Apr-22 01:01N 42°20' W 070°57'4129.0
2018-Apr-22 00:59N 42°22' W 071°02'0 0.0
2018-Apr-22 00:30N 42°22' W 071°02'0109.2
2018-Apr-22 00:30N 42°22' W 071°02'0 0.4
2018-Apr-22 00:00N 42°22' W 071°02'834.9
2018-Apr-21 23:47N 42°15' W 070°58'825.3
2018-Apr-21 23:29N 42°22' W 071°02'712556.6
2018-Apr-21 23:29N 42°16' W 070°56'714.4
2018-Apr-21 23:00N 42°22' W 071°02'6136.4
2018-Apr-21 22:57N 42°19' W 070°54'614.0
2018-Apr-21 22:30N 42°22' W 071°02'126.7
2018-Apr-21 22:28N 42°21' W 071°01'1 1.9
2018-Apr-21 21:59N 42°22' W 071°02'0 0.1
2018-Apr-21 21:56N 42°22' W 071°02'0 0.0
2018-Apr-21 21:30N 42°22' W 071°02'0 0.5
2018-Apr-21 21:29N 42°22' W 071°02'0 0.0
2018-Apr-21 21:00N 42°22' W 071°02'0 0.3
2018-Apr-21 20:59N 42°22' W 071°02'0 0.0
2018-Apr-21 20:28N 42°22' W 071°02'0 0.0
2018-Apr-21 20:22N 42°22' W 071°02'0 0.0
2018-Apr-21 19:47N 42°22' W 071°02'0 0.1
2018-Apr-21 19:44N 42°22' W 071°02'0 0.0
2018-Apr-21 19:15N 42°22' W 071°02'511.9
2018-Apr-21 18:48N 42°22' W 070°55'515.2
2018-Apr-21 18:27N 42°22' W 071°02'6344.9
2018-Apr-21 18:26N 42°22' W 070°53'4 8.8
2018-Apr-21 18:00N 42°23' W 070°48'1099.2
2018-Apr-21 17:54N 42°22' W 071°02'1025.6
2018-Apr-21 17:30N 42°23' W 070°49'1028.0
2018-Apr-21 17:09N 42°22' W 071°02'0 0.3
2018-Apr-21 16:46N 42°22' W 071°02'0 1.2
2018-Apr-21 16:40N 42°22' W 071°02'0 0.0
2018-Apr-21 16:10N 42°22' W 071°02'0 0.0
2018-Apr-21 15:48N 42°22' W 071°02'0 0.0
2018-Apr-21 15:21N 42°22' W 071°02'0 0.0
2018-Apr-21 14:55N 42°22' W 071°02'0 0.0
2018-Apr-21 14:25N 42°22' W 071°02'0 0.0
2018-Apr-21 13:16N 42°22' W 071°02'0 0.1
2018-Apr-21 13:00N 42°22' W 071°02'0 0.2
2018-Apr-21 12:52N 42°22' W 071°02'0 0.0
2018-Apr-21 12:27N 42°22' W 071°02'51318.9
2018-Apr-21 12:27N 42°19' W 070°56'4 7.9
2018-Apr-21 12:00N 42°20' W 070°51'8394.8
2018-Apr-21 11:59N 42°22' W 071°02'0 0.0
2018-Apr-21 11:25N 42°22' W 071°02'0 0.0
2018-Apr-21 10:59N 42°22' W 071°02'822.7
2018-Apr-21 10:39N 42°14' W 070°58'848.2
2018-Apr-21 10:29N 42°22' W 071°02'0 0.0
2018-Apr-21 09:58N 42°22' W 071°02'1 2.5
2018-Apr-21 09:41N 42°21' W 071°01'1 4.2
2018-Apr-21 09:30N 42°22' W 071°02'217.3
2018-Apr-21 09:24N 42°20' W 071°00'2 4.3
2018-Apr-21 09:00N 42°22' W 071°02'0 0.0
2018-Apr-21 08:31N 42°22' W 071°02'0 1.3
2018-Apr-21 08:30N 42°22' W 071°02'0 0.0
2018-Apr-21 08:00N 42°22' W 071°02'0 8.1
2018-Apr-21 08:00N 42°22' W 071°02'0 0.0
2018-Apr-21 07:30N 42°22' W 071°02'0 0.1
2018-Apr-21 07:21N 42°22' W 071°02'0 0.1
2018-Apr-21 07:00N 42°22' W 071°02'0 0.1
2018-Apr-21 06:50N 42°22' W 071°02'0 0.0
2018-Apr-21 06:30N 42°22' W 071°02'0 3.1
2018-Apr-21 06:30N 42°22' W 071°02'0 0.0
2018-Apr-21 06:00N 42°22' W 071°02'0 0.1
2018-Apr-21 05:52N 42°22' W 071°02'0 0.0
2018-Apr-21 05:30N 42°22' W 071°02'0 0.2
2018-Apr-21 05:23N 42°22' W 071°02'0 0.0
2018-Apr-21 04:58N 42°22' W 071°02'0 0.1
2018-Apr-21 04:52N 42°22' W 071°02'0 0.0
2018-Apr-21 04:28N 42°22' W 071°02'0 0.2
2018-Apr-21 04:24N 42°22' W 071°02'0 0.0
2018-Apr-21 03:59N 42°22' W 071°02'0 0.1
2018-Apr-21 03:44N 42°22' W 071°02'0 0.1
2018-Apr-21 03:27N 42°22' W 071°02'0 0.1
2018-Apr-21 03:12N 42°22' W 071°02'0 0.1
2018-Apr-21 02:57N 42°22' W 071°02'0 0.0
2018-Apr-21 02:30N 42°22' W 071°02'0 0.0
2018-Apr-21 01:29N 42°22' W 071°02'0 7.2
2018-Apr-21 01:29N 42°22' W 071°02'0 0.0
2018-Apr-21 00:23N 42°22' W 071°02'021.6
2018-Apr-21 00:23N 42°22' W 071°02'0 0.0
2018-Apr-20 23:58N 42°22' W 071°02'032.4
2018-Apr-20 23:58N 42°22' W 071°02'0 0.0
2018-Apr-20 23:21N 42°22' W 071°02'0 7.2
2018-Apr-20 23:21N 42°22' W 071°02'0 0.0
2018-Apr-20 22:57N 42°22' W 071°02'0 5.4
2018-Apr-20 22:57N 42°22' W 071°02'0 0.0
2018-Apr-20 22:26N 42°22' W 071°02'014.4
2018-Apr-20 22:26N 42°22' W 071°02'0 0.2
2018-Apr-20 21:57N 42°22' W 071°02'4 7.4
2018-Apr-20 21:28N 42°20' W 070°57'412914.8
2018-Apr-20 21:28N 42°22' W 071°02'5 9.0
2018-Apr-20 20:56N 42°22' W 070°56'518.6
2018-Apr-20 20:41N 42°22' W 071°02'0 0.0
2018-Apr-20 20:27N 42°22' W 071°02'1906.9
2018-Apr-20 20:27N 42°21' W 071°01'1 2.7
2018-Apr-20 19:59N 42°22' W 071°02'1 6.0
2018-Apr-20 19:47N 42°21' W 071°02'1 1.5
2018-Apr-20 19:20N 42°21' W 071°02'1 4.5
2018-Apr-20 19:11N 42°22' W 071°02'0 0.0
2018-Apr-20 18:56N 42°22' W 071°02'0 0.0
2018-Apr-20 18:25N 42°22' W 071°02'0 3.9
2018-Apr-20 18:25N 42°22' W 071°02'0 0.0
2018-Apr-20 17:53N 42°22' W 071°02'021.6
2018-Apr-20 17:53N 42°22' W 071°02'0 0.0
2018-Apr-20 17:08N 42°22' W 071°02'032.4
2018-Apr-20 17:08N 42°22' W 071°02'0 0.0
2018-Apr-20 16:50N 42°22' W 071°02'013.0
2018-Apr-20 16:50N 42°22' W 071°02'0 0.0
2018-Apr-20 16:21N 42°22' W 071°02'016.2
2018-Apr-20 16:21N 42°22' W 071°02'0 0.0
2018-Apr-20 15:58N 42°22' W 071°02'0 0.0
2018-Apr-20 15:29N 42°22' W 071°02'013.0
2018-Apr-20 15:29N 42°22' W 071°02'0 0.0
2018-Apr-20 14:56N 42°22' W 071°02'010.8
2018-Apr-20 14:56N 42°22' W 071°02'0 0.0
2018-Apr-20 14:15N 42°22' W 071°02'064.8
2018-Apr-20 14:15N 42°22' W 071°02'0 0.0
2018-Apr-20 13:53N 42°22' W 071°02'010.8
2018-Apr-20 13:53N 42°22' W 071°02'0 0.0
2018-Apr-20 13:29N 42°22' W 071°02'0272.5
2018-Apr-20 13:29N 42°22' W 071°02'0 0.1
2018-Apr-20 12:59N 42°22' W 071°02'0 6.1
2018-Apr-20 12:57N 42°22' W 071°02'1 3.0
2018-Apr-20 12:30N 42°23' W 071°03'1 4.3
2018-Apr-20 12:12N 42°22' W 071°02'0 0.0
2018-Apr-20 11:43N 42°22' W 071°02'0 9.0
2018-Apr-20 11:43N 42°22' W 071°02'0 0.0
2018-Apr-20 11:22N 42°22' W 071°02'413.7
2018-Apr-20 11:04N 42°20' W 070°57'442.4
2018-Apr-20 10:59N 42°22' W 071°02'423.8
2018-Apr-20 10:49N 42°20' W 070°57'3 9.8
2018-Apr-20 10:30N 42°22' W 070°54'676.1
2018-Apr-20 10:25N 42°22' W 071°02'1125.9
2018-Apr-20 10:00N 42°24' W 070°48'1135.4
2018-Apr-20 09:42N 42°22' W 071°02'0 0.0
2018-Apr-20 09:30N 42°22' W 071°02'7404.3
2018-Apr-20 09:29N 42°23' W 070°53'714.5
2018-Apr-20 09:00N 42°22' W 071°02'034.5
2018-Apr-20 09:00N 42°22' W 071°02'0 0.0
2018-Apr-20 08:21N 42°22' W 071°02'0 0.1
2018-Apr-20 08:14N 42°22' W 071°02'0 0.0
2018-Apr-20 07:57N 42°22' W 071°02'0 0.2
2018-Apr-20 07:51N 42°22' W 071°02'0 0.0
2018-Apr-20 07:26N 42°22' W 071°02'0 0.0
2018-Apr-20 07:00N 42°22' W 071°02'064.8
2018-Apr-20 07:00N 42°22' W 071°02'0 0.0
2018-Apr-20 06:30N 42°22' W 071°02'010.8
2018-Apr-20 06:30N 42°22' W 071°02'0 0.0
2018-Apr-20 06:00N 42°22' W 071°02'0 0.0
2018-Apr-20 05:30N 42°22' W 071°02'064.8
2018-Apr-20 05:30N 42°22' W 071°02'0 0.0
2018-Apr-20 05:01N 42°22' W 071°02'010.8
2018-Apr-20 05:00N 42°22' W 071°02'0 0.0
2018-Apr-20 04:30N 42°22' W 071°02'0 0.0
2018-Apr-20 04:01N 42°22' W 071°02'0 3.4
2018-Apr-20 04:00N 42°22' W 071°02'1 1.1
2018-Apr-20 03:30N 42°21' W 071°02'1373.6
2018-Apr-20 03:30N 42°22' W 071°02'4 8.3
2018-Apr-20 03:01N 42°21' W 070°57'42132.2
2018-Apr-20 03:00N 42°22' W 071°02'4 8.4
2018-Apr-20 02:31N 42°20' W 070°57'45038.1
2018-Apr-20 02:30N 42°22' W 071°02'0 0.0
2018-Apr-20 01:59N 42°22' W 071°02'11413.8
2018-Apr-20 01:59N 42°21' W 071°02'1 2.5
2018-Apr-20 01:30N 42°22' W 071°02'1849.8
2018-Apr-20 01:30N 42°21' W 071°02'1 2.4
2018-Apr-20 01:00N 42°22' W 071°02'0 0.0
2018-Apr-20 00:30N 42°22' W 071°02'016.2
2018-Apr-20 00:30N 42°22' W 071°02'0 0.0
2018-Apr-20 00:00N 42°22' W 071°02'010.8
2018-Apr-20 00:00N 42°22' W 071°02'0 0.0
2018-Apr-19 23:30N 42°22' W 071°02'0 5.4
2018-Apr-19 23:30N 42°22' W 071°02'0 0.0
2018-Apr-19 22:59N 42°22' W 071°02'010.8
2018-Apr-19 22:59N 42°22' W 071°02'0 0.0
2018-Apr-19 22:30N 42°22' W 071°02'013.0
2018-Apr-19 22:30N 42°22' W 071°02'0 0.0
2018-Apr-19 22:00N 42°22' W 071°02'064.8
2018-Apr-19 22:00N 42°22' W 071°02'0 0.0
2018-Apr-19 21:30N 42°22' W 071°02'064.8
2018-Apr-19 21:29N 42°22' W 071°02'0 0.0
2018-Apr-19 21:00N 42°22' W 071°02'41993.3
2018-Apr-19 20:59N 42°21' W 070°56'4 9.2
2018-Apr-19 20:30N 42°22' W 071°02'1 2.8
2018-Apr-19 19:59N 42°21' W 071°01'11715.9
2018-Apr-19 19:59N 42°22' W 071°02'0 0.0
2018-Apr-19 19:30N 42°22' W 071°02'021.6
2018-Apr-19 19:30N 42°22' W 071°02'0 0.0
2018-Apr-19 19:00N 42°22' W 071°02'013.0
2018-Apr-19 19:00N 42°22' W 071°02'0 0.0
2018-Apr-19 18:30N 42°22' W 071°02'0 0.0
2018-Apr-19 18:00N 42°22' W 071°02'021.6
2018-Apr-19 17:59N 42°22' W 071°02'0 0.0
2018-Apr-19 17:30N 42°22' W 071°02'010.8
2018-Apr-19 17:30N 42°22' W 071°02'0 0.0
2018-Apr-19 17:00N 42°22' W 071°02'021.6
2018-Apr-19 16:59N 42°22' W 071°02'0 0.0
2018-Apr-19 16:30N 42°22' W 071°02'032.4
2018-Apr-19 16:30N 42°22' W 071°02'0 0.0
2018-Apr-19 16:00N 42°22' W 071°02'015.4
2018-Apr-19 16:00N 42°22' W 071°02'0 0.0
2018-Apr-19 15:30N 42°22' W 071°02'064.8
2018-Apr-19 15:30N 42°22' W 071°02'0 0.0
2018-Apr-19 15:00N 42°22' W 071°02'021.6
2018-Apr-19 15:00N 42°22' W 071°02'0 0.0
2018-Apr-19 14:31N 42°22' W 071°02'021.6
2018-Apr-19 14:30N 42°22' W 071°02'0 0.0
2018-Apr-19 14:01N 42°22' W 071°02'032.4
2018-Apr-19 14:00N 42°22' W 071°02'0 0.0
2018-Apr-19 13:31N 42°22' W 071°02'064.8
2018-Apr-19 13:30N 42°22' W 071°02'0 0.0
2018-Apr-19 13:00N 42°22' W 071°02'0 0.0
2018-Apr-19 12:30N 42°22' W 071°02'0 0.0
2018-Apr-19 12:01N 42°22' W 071°02'022.2
2018-Apr-19 12:00N 42°22' W 071°02'0 0.0
2018-Apr-19 11:30N 42°22' W 071°02'0 1.3
2018-Apr-19 11:29N 42°22' W 071°02'0 0.0
2018-Apr-19 11:00N 42°22' W 071°02'11437.0
2018-Apr-19 11:00N 42°21' W 071°02'1 2.4
2018-Apr-19 10:30N 42°22' W 071°02'0 0.0
2018-Apr-19 10:00N 42°22' W 071°02'0 5.3
2018-Apr-19 10:00N 42°22' W 071°02'0 0.0
2018-Apr-19 09:30N 42°22' W 071°02'0 0.0
2018-Apr-19 09:01N 42°22' W 071°02'0 0.5
2018-Apr-19 09:00N 42°22' W 071°02'0 0.0
2018-Apr-19 08:30N 42°22' W 071°02'919.4
2018-Apr-19 08:00N 42°24' W 070°50'103800.4
2018-Apr-19 08:00N 42°22' W 071°02'0 0.0
2018-Apr-19 07:30N 42°22' W 071°02'53170.2
2018-Apr-19 07:30N 42°22' W 070°55'510.4
2018-Apr-19 06:59N 42°22' W 071°02'1547.2
2018-Apr-19 06:59N 42°21' W 071°01'1 1.8
2018-Apr-19 06:29N 42°22' W 071°02'026.9
2018-Apr-19 06:29N 42°22' W 071°02'0 0.0
2018-Apr-19 06:00N 42°22' W 071°02'0 0.2
2018-Apr-19 05:58N 42°22' W 071°02'4 9.0
2018-Apr-19 05:29N 42°21' W 070°56'415366.2
2018-Apr-19 05:29N 42°22' W 071°02'0 0.0
2018-Apr-19 05:01N 42°22' W 071°02'51717.9
2018-Apr-19 05:00N 42°22' W 070°55'510.5
2018-Apr-19 04:30N 42°22' W 071°02'620195.6
2018-Apr-19 04:30N 42°22' W 070°54'610.9
2018-Apr-19 03:59N 42°22' W 071°02'59011.4
2018-Apr-19 03:59N 42°22' W 070°55'4 8.5
2018-Apr-19 03:30N 42°20' W 070°60'27780.9
2018-Apr-19 03:30N 42°22' W 071°02'0 0.0
2018-Apr-19 03:00N 42°22' W 071°02'1806.1
2018-Apr-19 03:00N 42°22' W 071°03'0 0.9
2018-Apr-19 02:30N 42°22' W 071°03'1215.9
2018-Apr-19 02:30N 42°22' W 071°02'0 0.0
2018-Apr-19 02:00N 42°22' W 071°02'0 1.1
2018-Apr-19 01:59N 42°22' W 071°02'0 0.0
2018-Apr-19 01:30N 42°22' W 071°02'0 8.6
2018-Apr-19 01:30N 42°22' W 071°02'0 0.0
2018-Apr-19 01:00N 42°22' W 071°02'021.6
2018-Apr-19 01:00N 42°22' W 071°02'0 0.0
2018-Apr-19 00:30N 42°22' W 071°02'0 1.0
2018-Apr-19 00:29N 42°22' W 071°02'0 0.0
2018-Apr-19 00:00N 42°22' W 071°02'016.2
2018-Apr-19 00:00N 42°22' W 071°02'0 0.0
2018-Apr-18 23:30N 42°22' W 071°02'013.0
2018-Apr-18 23:30N 42°22' W 071°02'0 0.0
2018-Apr-18 23:00N 42°22' W 071°02'2272.4
2018-Apr-18 23:00N 42°20' W 070°60'2 4.3
2018-Apr-18 22:30N 42°22' W 071°02'619981.9
2018-Apr-18 22:30N 42°22' W 070°54'610.8
2018-Apr-18 21:59N 42°22' W 071°02'0 5.4
2018-Apr-18 21:59N 42°22' W 071°02'0 0.0
2018-Apr-18 21:30N 42°22' W 071°02'0 9.0
2018-Apr-18 21:30N 42°22' W 071°02'0 0.0
2018-Apr-18 21:00N 42°22' W 071°02'0 0.3
2018-Apr-18 20:58N 42°22' W 071°02'0 0.0
2018-Apr-18 20:30N 42°22' W 071°02'0 3.5
2018-Apr-18 20:30N 42°22' W 071°02'0 0.0
2018-Apr-18 20:00N 42°22' W 071°02'53390.2
2018-Apr-18 19:59N 42°22' W 070°56'5 9.5
2018-Apr-18 19:30N 42°22' W 071°02'5276.9
2018-Apr-18 19:29N 42°21' W 070°56'5 9.8
2018-Apr-18 19:00N 42°22' W 071°02'1364.4
2018-Apr-18 19:00N 42°21' W 071°01'1 1.4
2018-Apr-18 18:30N 42°22' W 071°02'021.6
2018-Apr-18 18:30N 42°22' W 071°02'0 0.0
2018-Apr-18 17:59N 42°22' W 071°02'021.6
2018-Apr-18 17:59N 42°22' W 071°02'0 0.0
2018-Apr-18 17:31N 42°22' W 071°02'010.8
2018-Apr-18 17:30N 42°22' W 071°02'0 0.0
2018-Apr-18 16:59N 42°22' W 071°02'0 9.3
2018-Apr-18 16:59N 42°22' W 071°02'0 0.0
2018-Apr-18 16:30N 42°22' W 071°02'0 8.6
2018-Apr-18 16:29N 42°22' W 071°02'0 0.0
2018-Apr-18 16:00N 42°22' W 071°02'013.0
2018-Apr-18 16:00N 42°22' W 071°02'0 0.0
2018-Apr-18 15:29N 42°22' W 071°02'310130.7
2018-Apr-18 15:29N 42°20' W 070°59'612.7
2018-Apr-18 15:00N 42°24' W 070°52'8811.2
2018-Apr-18 14:59N 42°22' W 071°02'0 0.0
2018-Apr-18 14:30N 42°22' W 071°02'525.9
2018-Apr-18 14:19N 42°22' W 070°55'515.2
2018-Apr-18 14:00N 42°22' W 071°02'22194.4
2018-Apr-18 14:00N 42°21' W 071°00'2 3.6
2018-Apr-18 13:30N 42°22' W 071°02'0 0.0
2018-Apr-18 13:01N 42°22' W 071°02'0 0.0
2018-Apr-18 12:30N 42°22' W 071°02'0 0.0
2018-Apr-18 11:59N 42°22' W 071°02'0 1.0
2018-Apr-18 11:58N 42°22' W 071°02'0 0.0
2018-Apr-18 11:29N 42°22' W 071°02'0 8.1
2018-Apr-18 11:29N 42°22' W 071°02'0 0.0
2018-Apr-18 11:00N 42°22' W 071°02'021.6
2018-Apr-18 11:00N 42°22' W 071°02'0 0.0
2018-Apr-18 10:30N 42°22' W 071°02'0 0.0
2018-Apr-18 10:00N 42°22' W 071°02'0 8.6
2018-Apr-18 10:00N 42°22' W 071°02'0 0.0
2018-Apr-18 09:30N 42°22' W 071°02'064.8
2018-Apr-18 09:30N 42°22' W 071°02'0 0.0
2018-Apr-18 09:00N 42°22' W 071°02'015.4
2018-Apr-18 09:00N 42°22' W 071°02'0 0.0
2018-Apr-18 08:30N 42°22' W 071°02'0 2.3
2018-Apr-18 08:29N 42°22' W 071°02'0 0.0
2018-Apr-18 08:01N 42°22' W 071°02'014.4
2018-Apr-18 08:00N 42°22' W 071°02'0 0.0
2018-Apr-18 07:30N 42°22' W 071°02'0 0.0
2018-Apr-18 07:00N 42°22' W 071°02'064.8
2018-Apr-18 07:00N 42°22' W 071°02'0 0.0
2018-Apr-18 06:30N 42°22' W 071°02'0 0.0
2018-Apr-18 06:00N 42°22' W 071°02'043.2
2018-Apr-18 06:00N 42°22' W 071°02'0 0.0
2018-Apr-18 05:30N 42°22' W 071°02'0 0.0
2018-Apr-18 04:59N 42°22' W 071°02'14230.2
2018-Apr-18 04:59N 42°21' W 071°02'1 1.3
2018-Apr-18 04:30N 42°21' W 071°01'1 2.5
2018-Apr-18 03:59N 42°22' W 071°02'0 0.0
2018-Apr-18 03:30N 42°22' W 071°02'519342.0
2018-Apr-18 03:30N 42°22' W 070°55'4 8.8
2018-Apr-18 03:00N 42°21' W 071°00'2 3.3
2018-Apr-18 02:29N 42°22' W 071°02'0 0.7
2018-Apr-18 02:01N 42°21' W 071°02'0161.0
2018-Apr-18 02:00N 42°22' W 071°02'0 0.0
2018-Apr-18 01:30N 42°22' W 071°02'0 0.0
2018-Apr-18 00:59N 42°22' W 071°02'026.9
2018-Apr-18 00:59N 42°22' W 071°02'0 0.0
2018-Apr-18 00:30N 42°22' W 071°02'1 2.4
2018-Apr-18 00:00N 42°21' W 071°02'14206.1
2018-Apr-18 00:00N 42°22' W 071°02'1 2.3
2018-Apr-17 23:30N 42°21' W 071°02'1116.2
2018-Apr-17 23:29N 42°22' W 071°02'1 2.4
2018-Apr-17 23:00N 42°21' W 071°02'14206.1
2018-Apr-17 23:00N 42°22' W 071°02'0 0.0
2018-Apr-17 22:30N 42°22' W 071°02'138.6
2018-Apr-17 22:28N 42°21' W 071°02'0 0.0
2018-Apr-17 21:59N 42°21' W 071°02'1 2.4
2018-Apr-17 21:30N 42°22' W 071°02'134.9
2018-Apr-17 21:28N 42°21' W 071°02'1 2.5
2018-Apr-17 21:00N 42°22' W 071°02'013.0
2018-Apr-17 21:00N 42°22' W 071°02'0 0.0
2018-Apr-17 20:30N 42°22' W 071°02'0 0.0
2018-Apr-17 20:00N 42°22' W 071°02'0 0.0
2018-Apr-17 19:29N 42°22' W 071°02'064.8
2018-Apr-17 19:29N 42°22' W 071°02'0 0.0
2018-Apr-17 19:01N 42°22' W 071°02'1349.5
2018-Apr-17 19:00N 42°23' W 071°03'1 1.9
2018-Apr-17 18:30N 42°22' W 071°02'917.1
2018-Apr-17 18:00N 42°24' W 070°51'9616.1
2018-Apr-17 17:59N 42°22' W 071°02'918.0
2018-Apr-17 17:31N 42°23' W 070°50'93110.8
2018-Apr-17 17:30N 42°22' W 071°02'0 0.0
2018-Apr-17 17:00N 42°22' W 071°02'112052.8
2018-Apr-17 17:00N 42°25' W 070°48'1 1.5
2018-Apr-17 16:31N 42°24' W 070°49'10559.3
2018-Apr-17 16:29N 42°22' W 071°02'0 0.0
2018-Apr-17 15:59N 42°22' W 071°02'816.0
2018-Apr-17 15:30N 42°23' W 070°52'81122.9
2018-Apr-17 15:30N 42°22' W 071°02'0 0.0
2018-Apr-17 15:00N 42°22' W 071°02'0 0.0
2018-Apr-17 14:30N 42°22' W 071°02'827819.9
2018-Apr-17 14:30N 42°23' W 070°52'713.4
2018-Apr-17 14:01N 42°21' W 070°60'2479.8
2018-Apr-17 14:00N 42°22' W 071°02'0 0.0
2018-Apr-17 13:30N 42°22' W 071°02'0 0.2
2018-Apr-17 13:28N 42°22' W 071°02'0 0.0
2018-Apr-17 13:00N 42°22' W 071°02'0 6.7
2018-Apr-17 13:00N 42°22' W 071°02'0 0.0
2018-Apr-17 12:30N 42°22' W 071°02'0 0.0
2018-Apr-17 12:00N 42°22' W 071°02'0 3.4
2018-Apr-17 12:00N 42°22' W 071°02'0 0.0
2018-Apr-17 11:30N 42°22' W 071°02'0 0.2
2018-Apr-17 11:29N 42°22' W 071°02'510.1
2018-Apr-17 11:01N 42°22' W 070°55'54273.8
2018-Apr-17 11:00N 42°22' W 071°02'918.7
2018-Apr-17 10:30N 42°23' W 070°50'93353.6
2018-Apr-17 10:30N 42°22' W 071°02'0 0.0
2018-Apr-17 09:59N 42°22' W 071°02'0 0.0
2018-Apr-17 09:30N 42°22' W 071°02'0 0.0
2018-Apr-17 09:01N 42°22' W 071°02'0 0.0
2018-Apr-17 08:29N 42°22' W 071°02'0 0.0
2018-Apr-17 07:59N 42°22' W 071°02'064.8
2018-Apr-17 07:59N 42°22' W 071°02'0 0.0
2018-Apr-17 07:30N 42°22' W 071°02'0 0.0
2018-Apr-17 07:01N 42°22' W 071°02'0 0.0
2018-Apr-17 06:30N 42°22' W 071°02'0 0.0
2018-Apr-17 06:00N 42°22' W 071°02'0 8.6
2018-Apr-17 06:00N 42°22' W 071°02'0 0.0
2018-Apr-17 05:29N 42°22' W 071°02'064.8
2018-Apr-17 05:29N 42°22' W 071°02'0 0.0
2018-Apr-17 04:59N 42°22' W 071°02'0 0.0
2018-Apr-17 04:30N 42°22' W 071°02'064.8
2018-Apr-17 04:30N 42°22' W 071°02'0 0.0
2018-Apr-17 04:00N 42°22' W 071°02'064.8
2018-Apr-17 04:00N 42°22' W 071°02'0 0.0
2018-Apr-17 03:30N 42°22' W 071°02'0 0.0
2018-Apr-17 03:01N 42°22' W 071°02'032.4
2018-Apr-17 03:00N 42°22' W 071°02'0 0.0
2018-Apr-17 02:30N 42°22' W 071°02'0 0.0
2018-Apr-17 02:01N 42°22' W 071°02'0 7.2
2018-Apr-17 02:00N 42°22' W 071°02'0 0.0
2018-Apr-17 01:31N 42°22' W 071°02'0 0.0
2018-Apr-17 01:00N 42°22' W 071°02'0 0.0
2018-Apr-17 00:30N 42°22' W 071°02'0 0.0
2018-Apr-17 00:00N 42°22' W 071°02'0 6.5
2018-Apr-17 00:00N 42°22' W 071°02'0 0.0
2018-Apr-16 23:30N 42°22' W 071°02'0 0.0
2018-Apr-16 23:01N 42°22' W 071°02'032.4
2018-Apr-16 23:01N 42°22' W 071°02'0 0.0
2018-Apr-16 22:30N 42°22' W 071°02'0 0.0
2018-Apr-16 22:00N 42°22' W 071°02'0 5.1
2018-Apr-16 22:00N 42°22' W 071°02'0 0.0
2018-Apr-16 21:30N 42°22' W 071°02'0 0.0
2018-Apr-16 21:00N 42°22' W 071°02'022.2
2018-Apr-16 21:00N 42°22' W 071°02'0 0.0
2018-Apr-16 20:30N 42°22' W 071°02'064.8
2018-Apr-16 20:30N 42°22' W 071°02'0 0.0
2018-Apr-16 20:01N 42°22' W 071°02'0 9.3
2018-Apr-16 20:00N 42°22' W 071°02'0 0.0
2018-Apr-16 19:30N 42°22' W 071°02'0 0.0
2018-Apr-16 19:00N 42°22' W 071°02'010.8
2018-Apr-16 19:00N 42°22' W 071°02'0 0.0
2018-Apr-16 18:30N 42°22' W 071°02'010.8
2018-Apr-16 18:30N 42°22' W 071°02'0 0.0
2018-Apr-16 18:00N 42°22' W 071°02'046.1
2018-Apr-16 18:00N 42°22' W 071°02'0 0.0
2018-Apr-16 17:30N 42°22' W 071°02'043.2
2018-Apr-16 17:30N 42°22' W 071°02'0 0.0
2018-Apr-16 17:01N 42°22' W 071°02'0 0.0
2018-Apr-16 16:30N 42°22' W 071°02'0 0.0
2018-Apr-16 16:01N 42°22' W 071°02'010.8
2018-Apr-16 16:00N 42°22' W 071°02'0 0.0
2018-Apr-16 15:30N 42°22' W 071°02'0 0.0
2018-Apr-16 15:00N 42°22' W 071°02'0 6.2
2018-Apr-16 15:00N 42°22' W 071°02'0 0.0
2018-Apr-16 14:30N 42°22' W 071°02'046.1
2018-Apr-16 14:30N 42°22' W 071°02'0 0.0
2018-Apr-16 14:01N 42°22' W 071°02'1342.1
2018-Apr-16 14:00N 42°23' W 071°03'1 2.7
2018-Apr-16 13:30N 42°22' W 071°02'510.8
2018-Apr-16 13:01N 42°22' W 070°55'5689.4
2018-Apr-16 13:00N 42°22' W 071°02'2 3.8
2018-Apr-16 12:30N 42°21' W 070°60'2 3.8
2018-Apr-16 12:01N 42°22' W 071°02'0371.2
2018-Apr-16 12:00N 42°21' W 071°02'0 0.8
2018-Apr-16 11:30N 42°22' W 071°02'0 0.0
2018-Apr-16 11:00N 42°22' W 071°02'043.2
2018-Apr-16 11:00N 42°22' W 071°02'0 0.0
2018-Apr-16 10:30N 42°22' W 071°02'0 0.0
2018-Apr-16 10:00N 42°22' W 071°02'064.8
2018-Apr-16 10:00N 42°22' W 071°02'0 0.0
2018-Apr-16 09:30N 42°22' W 071°02'043.2
2018-Apr-16 09:30N 42°22' W 071°02'0 0.0
2018-Apr-16 09:01N 42°22' W 071°02'064.8
2018-Apr-16 09:01N 42°22' W 071°02'0 0.0
2018-Apr-16 08:30N 42°22' W 071°02'0 4.3
2018-Apr-16 08:30N 42°22' W 071°02'0 0.0
2018-Apr-16 08:00N 42°22' W 071°02'0 0.0
2018-Apr-16 07:30N 42°22' W 071°02'0 0.0
2018-Apr-16 07:00N 42°22' W 071°02'064.8
2018-Apr-16 07:00N 42°22' W 071°02'0 0.0
2018-Apr-16 06:31N 42°22' W 071°02'0 0.0
2018-Apr-16 06:00N 42°22' W 071°02'064.8
2018-Apr-16 06:00N 42°22' W 071°02'0 0.0
2018-Apr-16 05:30N 42°22' W 071°02'066.7
2018-Apr-16 05:30N 42°22' W 071°02'0 0.0
2018-Apr-16 05:01N 42°22' W 071°02'0 0.0
2018-Apr-16 04:30N 42°22' W 071°02'0 0.0
2018-Apr-16 04:00N 42°22' W 071°02'0 0.0
2018-Apr-16 03:30N 42°22' W 071°02'0 0.0
2018-Apr-16 03:00N 42°22' W 071°02'064.8
2018-Apr-16 03:00N 42°22' W 071°02'0 0.0
2018-Apr-16 02:30N 42°22' W 071°02'0 0.0
2018-Apr-16 02:01N 42°22' W 071°02'  
Track history (hours):
 
Tides and Currents Weather Stations Pressure Air Temp Water Temp Dewpoint Dewpoint Depression Visibility Wind Speed Wind Dir Waves Ship Positions

Boston Pilot Mystic

Last reported at 2018-Apr-26 01:30 UTC. Time now 2018-Apr-26 01:39 UTC.
Position N 42°22' W 071°02'.

Length 16 m; draft 1.5 m.

Type: Pilot. MMSI: 367029020.

Date/timePositionNaut miles runAvg speedWind from/ knotsBaromVisibWave heightAir tempDewpointWater temp
2018-Apr-26 01:30N 42°22' W 071°02'0 0.0
2018-Apr-26 01:00N 42°22' W 071°02'0 0.0
2018-Apr-26 00:31N 42°22' W 071°02'043.2
2018-Apr-26 00:31N 42°22' W 071°02'0 0.0
2018-Apr-26 00:00N 42°22' W 071°02'064.8
2018-Apr-26 00:00N 42°22' W 071°02'0 0.0
2018-Apr-25 23:30N 42°22' W 071°02'0 0.0
2018-Apr-25 23:00N 42°22' W 071°02'0 0.0
2018-Apr-25 22:30N 42°22' W 071°02'0 0.0
2018-Apr-25 22:00N 42°22' W 071°02'0 0.0
2018-Apr-25 21:31N 42°22' W 071°02'0 0.0
2018-Apr-25 21:00N 42°22' W 071°02'0 0.0
2018-Apr-25 20:30N 42°22' W 071°02'0 0.0
2018-Apr-25 20:00N 42°22' W 071°02'0 0.0
2018-Apr-25 19:30N 42°22' W 071°02'064.8
2018-Apr-25 19:30N 42°22' W 071°02'0 0.0
2018-Apr-25 19:00N 42°22' W 071°02'0 0.0
2018-Apr-25 18:31N 42°22' W 071°02'064.8
2018-Apr-25 18:31N 42°22' W 071°02'0 0.0
2018-Apr-25 17:04N 42°22' W 071°02'0 0.0
2018-Apr-25 16:54N 42°22' W 071°02'0 0.0
2018-Apr-25 14:17N 42°22' W 071°02'0 0.0
2018-Apr-25 13:46N 42°22' W 071°02'0 0.0
2018-Apr-25 13:25N 42°22' W 071°02'0 0.0
2018-Apr-25 12:55N 42°22' W 071°02'0 0.0
2018-Apr-25 12:27N 42°22' W 071°02'0 0.0
2018-Apr-25 12:00N 42°22' W 071°02'0 0.1
2018-Apr-25 11:51N 42°22' W 071°02'0 0.9
2018-Apr-25 11:30N 42°22' W 071°02'0 4.8
2018-Apr-25 11:26N 42°22' W 071°02'0 0.0
2018-Apr-25 11:00N 42°22' W 071°02'12348.0
2018-Apr-25 11:00N 42°22' W 071°03'1 1.3
2018-Apr-25 10:30N 42°22' W 071°02'0 0.0
2018-Apr-25 10:01N 42°22' W 071°02'0 0.0
2018-Apr-25 09:31N 42°22' W 071°02'516283.9
2018-Apr-25 09:31N 42°21' W 070°56'5 8.9
2018-Apr-25 09:00N 42°22' W 071°02'0 0.0
2018-Apr-25 08:30N 42°22' W 071°02'0 0.0
2018-Apr-25 08:00N 42°22' W 071°02'0 0.0
2018-Apr-25 07:30N 42°22' W 071°02'0 0.0
2018-Apr-25 07:00N 42°22' W 071°02'0 0.0
2018-Apr-25 06:30N 42°22' W 071°02'0 0.0
2018-Apr-25 06:00N 42°22' W 071°02'0 0.0
2018-Apr-25 05:30N 42°22' W 071°02'0 5.4
2018-Apr-25 05:30N 42°22' W 071°02'0 0.0
2018-Apr-25 05:00N 42°22' W 071°02'016.7
2018-Apr-25 05:00N 42°22' W 071°02'0 0.0
2018-Apr-25 04:30N 42°22' W 071°02'0 1.2
2018-Apr-25 04:29N 42°22' W 071°02'0 0.0
2018-Apr-25 04:00N 42°22' W 071°02'0 3.6
2018-Apr-25 04:00N 42°22' W 071°02'0 0.0
2018-Apr-25 03:30N 42°22' W 071°02'010.8
2018-Apr-25 03:30N 42°22' W 071°02'0 0.0
2018-Apr-25 03:00N 42°22' W 071°02'0 8.1
2018-Apr-25 03:00N 42°22' W 071°02'0 0.0
2018-Apr-25 02:30N 42°22' W 071°02'0 4.3
2018-Apr-25 02:30N 42°22' W 071°02'0 0.0
2018-Apr-25 02:00N 42°22' W 071°02'0 0.0
2018-Apr-25 01:30N 42°22' W 071°02'0 0.0
2018-Apr-25 01:00N 42°22' W 071°02'033.4
2018-Apr-25 01:00N 42°22' W 071°02'0 0.0
2018-Apr-25 00:30N 42°22' W 071°02'1804.1
2018-Apr-25 00:30N 42°21' W 071°01'1 2.7
2018-Apr-25 00:00N 42°22' W 071°02'4249.0
2018-Apr-24 23:59N 42°20' W 070°57'4 7.7
2018-Apr-24 23:30N 42°22' W 071°02'0 0.0
2018-Apr-24 23:00N 42°22' W 071°02'62075.6
2018-Apr-24 23:00N 42°22' W 070°54'0 0.7
2018-Apr-24 22:30N 42°23' W 070°54'63596.1
2018-Apr-24 22:30N 42°22' W 071°02'918.9
2018-Apr-24 22:00N 42°25' W 070°50'93361.2
2018-Apr-24 22:00N 42°22' W 071°02'0 0.0
2018-Apr-24 21:30N 42°22' W 071°02'0 0.0
2018-Apr-24 21:00N 42°22' W 071°02'0 0.0
2018-Apr-24 20:30N 42°22' W 071°02'0 0.0
2018-Apr-24 20:00N 42°22' W 071°02'0 0.0
2018-Apr-24 19:30N 42°22' W 071°02'064.8
2018-Apr-24 19:30N 42°22' W 071°02'0 0.0
2018-Apr-24 19:00N 42°22' W 071°02'0 0.0
2018-Apr-24 18:31N 42°22' W 071°02'0 0.0
2018-Apr-24 18:00N 42°22' W 071°02'0 0.0
2018-Apr-24 17:30N 42°22' W 071°02'064.8
2018-Apr-24 17:30N 42°22' W 071°02'0 0.0
2018-Apr-24 17:00N 42°22' W 071°02'043.2
2018-Apr-24 17:00N 42°22' W 071°02'2 4.3
2018-Apr-24 16:30N 42°20' W 070°60'4 8.9
2018-Apr-24 16:00N 42°22' W 070°54'621275.3
2018-Apr-24 16:00N 42°22' W 071°02'0 0.0
2018-Apr-24 15:31N 42°22' W 071°02'10402.4
2018-Apr-24 15:29N 42°23' W 070°48'1020.9
2018-Apr-24 15:00N 42°22' W 071°02'7378.6
2018-Apr-24 14:59N 42°23' W 070°53'713.8
2018-Apr-24 14:30N 42°21' W 071°01'14391.0
2018-Apr-24 14:30N 42°22' W 071°02'0 0.0
2018-Apr-24 14:00N 42°22' W 071°02'0 0.0
2018-Apr-24 13:30N 42°22' W 071°02'0 0.0
2018-Apr-24 13:00N 42°22' W 071°02'0 0.0
2018-Apr-24 12:30N 42°22' W 071°02'0 0.0
2018-Apr-24 12:00N 42°22' W 071°02'064.8
2018-Apr-24 12:00N 42°22' W 071°02'0 0.0
2018-Apr-24 11:30N 42°22' W 071°02'0 0.0
2018-Apr-24 11:00N 42°22' W 071°02'0 0.0
2018-Apr-24 10:30N 42°22' W 071°02'0 8.1
2018-Apr-24 10:30N 42°22' W 071°02'0 0.0
2018-Apr-24 10:00N 42°22' W 071°02'0 0.0
2018-Apr-24 09:30N 42°22' W 071°02'0 1.7
2018-Apr-24 09:30N 42°22' W 071°02'0 0.0
2018-Apr-24 09:00N 42°22' W 071°02'0 0.0
2018-Apr-24 08:30N 42°22' W 071°02'0 0.0
2018-Apr-24 08:00N 42°22' W 071°02'0 0.0
2018-Apr-24 07:30N 42°22' W 071°02'0 0.0
2018-Apr-24 07:01N 42°22' W 071°02'0 0.0
2018-Apr-24 06:30N 42°22' W 071°02'0 0.0
2018-Apr-24 06:00N 42°22' W 071°02'043.2
2018-Apr-24 06:00N 42°22' W 071°02'0 0.0
2018-Apr-24 05:30N 42°22' W 071°02'043.2
2018-Apr-24 05:30N 42°22' W 071°02'0 0.0
2018-Apr-24 05:00N 42°22' W 071°02'0 0.0
2018-Apr-24 04:30N 42°22' W 071°02'0 0.0
2018-Apr-24 04:00N 42°22' W 071°02'0 0.0
2018-Apr-24 03:30N 42°22' W 071°02'0 1.3
2018-Apr-24 03:30N 42°22' W 071°02'0 0.0
2018-Apr-24 03:00N 42°22' W 071°02'0 0.0
2018-Apr-24 02:30N 42°22' W 071°02'0 0.0
2018-Apr-24 02:00N 42°22' W 071°02'0 0.0
2018-Apr-24 01:30N 42°22' W 071°02'0 0.0
2018-Apr-24 01:00N 42°22' W 071°02'0 1.4
2018-Apr-24 01:00N 42°22' W 071°02'0 0.0
2018-Apr-24 00:30N 42°22' W 071°02'0 0.0
2018-Apr-24 00:00N 42°22' W 071°02'0 0.0
2018-Apr-23 23:30N 42°22' W 071°02'064.8
2018-Apr-23 23:30N 42°22' W 071°02'0 0.0
2018-Apr-23 23:00N 42°22' W 071°02'0 5.9
2018-Apr-23 23:00N 42°22' W 071°02'0 0.0
2018-Apr-23 22:30N 42°22' W 071°02'0 0.0
2018-Apr-23 22:00N 42°22' W 071°02'021.6
2018-Apr-23 22:00N 42°22' W 071°02'0 0.0
2018-Apr-23 21:30N 42°22' W 071°02'0 3.6
2018-Apr-23 21:30N 42°22' W 071°02'0 0.0
2018-Apr-23 21:00N 42°22' W 071°02'0 0.0
2018-Apr-23 20:30N 42°22' W 071°02'0 0.0
2018-Apr-23 20:00N 42°22' W 071°02'96237.0
2018-Apr-23 20:00N 42°24' W 070°50'917.4
2018-Apr-23 19:30N 42°22' W 071°02'0 0.0
2018-Apr-23 19:00N 42°22' W 071°02'3 7.0
2018-Apr-23 18:30N 42°20' W 070°58'3 6.9
2018-Apr-23 18:00N 42°22' W 071°02'0 0.0
2018-Apr-23 17:30N 42°22' W 071°02'0 0.0
2018-Apr-23 17:00N 42°22' W 071°02'0 0.0
2018-Apr-23 16:30N 42°22' W 071°02'0 0.0
2018-Apr-23 16:00N 42°22' W 071°02'0 0.0
2018-Apr-23 15:30N 42°22' W 071°02'0 0.0
2018-Apr-23 15:01N 42°22' W 071°02'0 7.2
2018-Apr-23 15:00N 42°22' W 071°02'0 0.0
2018-Apr-23 14:30N 42°22' W 071°02'0 0.0
2018-Apr-23 14:00N 42°22' W 071°02'064.8
2018-Apr-23 14:00N 42°22' W 071°02'0 0.0
2018-Apr-23 13:31N 42°22' W 071°02'0 0.0
2018-Apr-23 13:01N 42°22' W 071°02'34742.6
2018-Apr-23 13:00N 42°20' W 070°59'3 5.3
2018-Apr-23 12:30N 42°22' W 071°02'0 9.0
2018-Apr-23 12:30N 42°22' W 071°02'0 0.0
2018-Apr-23 12:00N 42°22' W 071°02'0 8.0
2018-Apr-23 12:00N 42°22' W 071°02'0 0.0
2018-Apr-23 11:30N 42°22' W 071°02'0 8.0
2018-Apr-23 11:30N 42°22' W 071°02'1 2.7
2018-Apr-23 11:01N 42°23' W 071°03'11210.0
2018-Apr-23 11:00N 42°22' W 071°02'0 0.0
2018-Apr-23 10:30N 42°22' W 071°02'3516.7
2018-Apr-23 10:30N 42°20' W 070°60'3 5.2
2018-Apr-23 10:00N 42°22' W 071°02'7819.0
2018-Apr-23 10:00N 42°16' W 070°56'714.8
2018-Apr-23 09:30N 42°22' W 071°02'71747.7
2018-Apr-23 09:30N 42°17' W 070°56'713.7
2018-Apr-23 09:00N 42°22' W 071°02'56407.1
2018-Apr-23 09:00N 42°22' W 070°55'510.7
2018-Apr-23 08:30N 42°22' W 071°02'0 0.0
2018-Apr-23 08:00N 42°22' W 071°02'0 2.7
2018-Apr-23 08:00N 42°22' W 071°02'0 0.0
2018-Apr-23 07:30N 42°22' W 071°02'0 2.4
2018-Apr-23 07:30N 42°22' W 071°02'0 0.0
2018-Apr-23 07:00N 42°22' W 071°02'016.0
2018-Apr-23 07:00N 42°22' W 071°02'0 0.0
2018-Apr-23 06:30N 42°22' W 071°02'0 0.0
2018-Apr-23 06:30N 42°22' W 071°02'0 0.0
2018-Apr-23 06:00N 42°22' W 071°02'0 5.3
2018-Apr-23 06:00N 42°22' W 071°02'0 0.0
2018-Apr-23 05:30N 42°22' W 071°02'0 0.0
2018-Apr-23 05:00N 42°22' W 071°02'0 0.0
2018-Apr-23 04:30N 42°22' W 071°02'0 0.0
2018-Apr-23 04:00N 42°22' W 071°02'0 1.1
2018-Apr-23 04:00N 42°22' W 071°02'0 0.0
2018-Apr-23 03:31N 42°22' W 071°02'016.0
2018-Apr-23 03:30N 42°22' W 071°02'0 0.0
2018-Apr-23 03:00N 42°22' W 071°02'0 1.8
2018-Apr-23 03:00N 42°22' W 071°02'0 0.0
2018-Apr-23 02:30N 42°22' W 071°02'0 0.0
2018-Apr-23 02:00N 42°22' W 071°02'0 2.0
2018-Apr-23 02:00N 42°22' W 071°02'0 0.0
2018-Apr-23 01:31N 42°22' W 071°02'0 0.4
2018-Apr-23 01:30N 42°22' W 071°02'0 0.0
2018-Apr-23 01:01N 42°22' W 071°02'0 0.5
2018-Apr-23 01:00N 42°22' W 071°02'0 0.0
2018-Apr-23 00:30N 42°22' W 071°02'0 0.0
2018-Apr-23 00:01N 42°22' W 071°02'010.8
2018-Apr-23 00:00N 42°22' W 071°02'0 0.0
2018-Apr-22 23:30N 42°22' W 071°02'0 3.4
2018-Apr-22 23:30N 42°22' W 071°02'0 0.0
2018-Apr-22 23:01N 42°22' W 071°02'0 2.7
2018-Apr-22 23:00N 42°22' W 071°02'0 0.0
2018-Apr-22 22:30N 42°22' W 071°02'0 1.8
2018-Apr-22 22:30N 42°22' W 071°02'0 0.0
2018-Apr-22 22:01N 42°22' W 071°02'0 6.7
2018-Apr-22 22:00N 42°22' W 071°02'0 0.0
2018-Apr-22 21:30N 42°22' W 071°02'026.9
2018-Apr-22 21:30N 42°22' W 071°02'0 0.0
2018-Apr-22 21:00N 42°22' W 071°02'0 2.0
2018-Apr-22 21:00N 42°22' W 071°02'0 0.0
2018-Apr-22 20:30N 42°22' W 071°02'0 3.8
2018-Apr-22 20:30N 42°22' W 071°02'0 0.0
2018-Apr-22 20:00N 42°22' W 071°02'016.0
2018-Apr-22 20:00N 42°22' W 071°02'0 0.0
2018-Apr-22 19:30N 42°22' W 071°02'0 0.0
2018-Apr-22 19:00N 42°22' W 071°02'95302.4
2018-Apr-22 19:00N 42°22' W 070°50'917.7
2018-Apr-22 18:30N 42°22' W 071°02'6376.7
2018-Apr-22 18:29N 42°19' W 070°54'613.3
2018-Apr-22 18:00N 42°22' W 071°02'0 0.0
2018-Apr-22 17:30N 42°22' W 071°02'0 0.0
2018-Apr-22 17:00N 42°22' W 071°02'6173.0
2018-Apr-22 16:58N 42°17' W 070°56'613.7
2018-Apr-22 16:30N 42°22' W 071°02'726753.8
2018-Apr-22 16:30N 42°15' W 070°58'2 3.6
2018-Apr-22 16:01N 42°16' W 070°56'78598.2
2018-Apr-22 16:00N 42°22' W 071°02'0 0.0
2018-Apr-22 15:30N 42°22' W 071°02'0 0.0
2018-Apr-22 15:00N 42°22' W 071°02'0 9.0
2018-Apr-22 15:00N 42°22' W 071°02'0 0.0
2018-Apr-22 14:30N 42°22' W 071°02'0 0.0
2018-Apr-22 14:01N 42°22' W 071°02'0 5.3
2018-Apr-22 14:00N 42°22' W 071°02'0 0.0
2018-Apr-22 13:30N 42°22' W 071°02'0 0.0
2018-Apr-22 13:00N 42°22' W 071°02'013.4
2018-Apr-22 13:00N 42°22' W 071°02'0 0.0
2018-Apr-22 12:30N 42°22' W 071°02'0 0.0
2018-Apr-22 12:00N 42°22' W 071°02'0 8.0
2018-Apr-22 12:00N 42°22' W 071°02'0 0.0
2018-Apr-22 11:30N 42°22' W 071°02'016.0
2018-Apr-22 11:30N 42°22' W 071°02'0 0.0
2018-Apr-22 11:00N 42°22' W 071°02'010.8
2018-Apr-22 11:00N 42°22' W 071°02'0 0.0
2018-Apr-22 10:30N 42°22' W 071°02'0 1.3
2018-Apr-22 10:30N 42°22' W 071°02'0 0.0
2018-Apr-22 10:01N 42°22' W 071°02'016.0
2018-Apr-22 10:00N 42°22' W 071°02'0 0.0
2018-Apr-22 09:30N 42°22' W 071°02'0 0.9
2018-Apr-22 09:30N 42°22' W 071°02'0 0.0
2018-Apr-22 09:00N 42°22' W 071°02'0 0.0
2018-Apr-22 09:00N 42°22' W 071°02'0 0.0
2018-Apr-22 08:30N 42°22' W 071°02'0 0.0
2018-Apr-22 08:30N 42°22' W 071°02'0 0.0
2018-Apr-22 08:01N 42°22' W 071°02'0 0.0
2018-Apr-22 08:01N 42°22' W 071°02'0 0.0
2018-Apr-22 07:30N 42°22' W 071°02'0 0.0
2018-Apr-22 07:00N 42°22' W 071°02'0 8.0
2018-Apr-22 07:00N 42°22' W 071°02'0 0.0
2018-Apr-22 06:30N 42°22' W 071°02'0 0.3
2018-Apr-22 06:29N 42°22' W 071°02'0 0.0
2018-Apr-22 05:59N 42°22' W 071°02'0 0.0
2018-Apr-22 05:30N 42°22' W 071°02'5246.9
2018-Apr-22 05:29N 42°22' W 070°55'510.2
2018-Apr-22 05:00N 42°22' W 071°02'0 2.0
2018-Apr-22 04:53N 42°22' W 071°02'0 0.6
2018-Apr-22 04:30N 42°22' W 071°02'0 4.7
2018-Apr-22 04:28N 42°22' W 071°02'0 0.3
2018-Apr-22 04:00N 42°22' W 071°02'0 1.8
2018-Apr-22 04:00N 42°22' W 071°02'0 0.0
2018-Apr-22 03:30N 42°22' W 071°02'0 0.9
2018-Apr-22 03:29N 42°22' W 071°02'0 0.0
2018-Apr-22 02:56N 42°22' W 071°02'0 0.4
2018-Apr-22 02:55N 42°22' W 071°02'0 0.0
2018-Apr-22 02:30N 42°22' W 071°02'0 0.3
2018-Apr-22 02:29N 42°22' W 071°02'0 0.3
2018-Apr-22 02:00N 42°22' W 071°02'019.9
2018-Apr-22 02:00N 42°22' W 071°02'613.0
2018-Apr-22 01:30N 42°22' W 070°53'6949.0
2018-Apr-22 01:30N 42°22' W 071°02'4 7.5
2018-Apr-22 01:01N 42°20' W 070°57'4129.0
2018-Apr-22 00:59N 42°22' W 071°02'0 0.0
2018-Apr-22 00:30N 42°22' W 071°02'0109.2
2018-Apr-22 00:30N 42°22' W 071°02'0 0.4
2018-Apr-22 00:00N 42°22' W 071°02'834.9
2018-Apr-21 23:47N 42°15' W 070°58'825.3
2018-Apr-21 23:29N 42°22' W 071°02'712556.6
2018-Apr-21 23:29N 42°16' W 070°56'714.4
2018-Apr-21 23:00N 42°22' W 071°02'6136.4
2018-Apr-21 22:57N 42°19' W 070°54'614.0
2018-Apr-21 22:30N 42°22' W 071°02'126.7
2018-Apr-21 22:28N 42°21' W 071°01'1 1.9
2018-Apr-21 21:59N 42°22' W 071°02'0 0.1
2018-Apr-21 21:56N 42°22' W 071°02'0 0.0
2018-Apr-21 21:30N 42°22' W 071°02'0 0.5
2018-Apr-21 21:29N 42°22' W 071°02'0 0.0
2018-Apr-21 21:00N 42°22' W 071°02'0 0.3
2018-Apr-21 20:59N 42°22' W 071°02'0 0.0
2018-Apr-21 20:28N 42°22' W 071°02'0 0.0
2018-Apr-21 20:22N 42°22' W 071°02'0 0.0
2018-Apr-21 19:47N 42°22' W 071°02'0 0.1
2018-Apr-21 19:44N 42°22' W 071°02'0 0.0
2018-Apr-21 19:15N 42°22' W 071°02'511.9
2018-Apr-21 18:48N 42°22' W 070°55'515.2
2018-Apr-21 18:27N 42°22' W 071°02'6344.9
2018-Apr-21 18:26N 42°22' W 070°53'4 8.8
2018-Apr-21 18:00N 42°23' W 070°48'1099.2
2018-Apr-21 17:54N 42°22' W 071°02'1025.6
2018-Apr-21 17:30N 42°23' W 070°49'1028.0
2018-Apr-21 17:09N 42°22' W 071°02'0 0.3
2018-Apr-21 16:46N 42°22' W 071°02'0 1.2
2018-Apr-21 16:40N 42°22' W 071°02'0 0.0
2018-Apr-21 16:10N 42°22' W 071°02'0 0.0
2018-Apr-21 15:48N 42°22' W 071°02'0 0.0
2018-Apr-21 15:21N 42°22' W 071°02'0 0.0
2018-Apr-21 14:55N 42°22' W 071°02'0 0.0
2018-Apr-21 14:25N 42°22' W 071°02'0 0.0
2018-Apr-21 13:16N 42°22' W 071°02'0 0.1
2018-Apr-21 13:00N 42°22' W 071°02'0 0.2
2018-Apr-21 12:52N 42°22' W 071°02'0 0.0
2018-Apr-21 12:27N 42°22' W 071°02'51318.9
2018-Apr-21 12:27N 42°19' W 070°56'4 7.9
2018-Apr-21 12:00N 42°20' W 070°51'8394.8
2018-Apr-21 11:59N 42°22' W 071°02'0 0.0
2018-Apr-21 11:25N 42°22' W 071°02'0 0.0
2018-Apr-21 10:59N 42°22' W 071°02'822.7
2018-Apr-21 10:39N 42°14' W 070°58'848.2
2018-Apr-21 10:29N 42°22' W 071°02'0 0.0
2018-Apr-21 09:58N 42°22' W 071°02'1 2.5
2018-Apr-21 09:41N 42°21' W 071°01'1 4.2
2018-Apr-21 09:30N 42°22' W 071°02'217.3
2018-Apr-21 09:24N 42°20' W 071°00'2 4.3
2018-Apr-21 09:00N 42°22' W 071°02'0 0.0
2018-Apr-21 08:31N 42°22' W 071°02'0 1.3
2018-Apr-21 08:30N 42°22' W 071°02'0 0.0
2018-Apr-21 08:00N 42°22' W 071°02'0 8.1
2018-Apr-21 08:00N 42°22' W 071°02'0 0.0
2018-Apr-21 07:30N 42°22' W 071°02'0 0.1
2018-Apr-21 07:21N 42°22' W 071°02'0 0.1
2018-Apr-21 07:00N 42°22' W 071°02'0 0.1
2018-Apr-21 06:50N 42°22' W 071°02'0 0.0
2018-Apr-21 06:30N 42°22' W 071°02'0 3.1
2018-Apr-21 06:30N 42°22' W 071°02'0 0.0
2018-Apr-21 06:00N 42°22' W 071°02'0 0.1
2018-Apr-21 05:52N 42°22' W 071°02'0 0.0
2018-Apr-21 05:30N 42°22' W 071°02'0 0.2
2018-Apr-21 05:23N 42°22' W 071°02'0 0.0
2018-Apr-21 04:58N 42°22' W 071°02'0 0.1
2018-Apr-21 04:52N 42°22' W 071°02'0 0.0
2018-Apr-21 04:28N 42°22' W 071°02'0 0.2
2018-Apr-21 04:24N 42°22' W 071°02'0 0.0
2018-Apr-21 03:59N 42°22' W 071°02'0 0.1
2018-Apr-21 03:44N 42°22' W 071°02'0 0.1
2018-Apr-21 03:27N 42°22' W 071°02'0 0.1
2018-Apr-21 03:12N 42°22' W 071°02'0 0.1
2018-Apr-21 02:57N 42°22' W 071°02'0 0.0
2018-Apr-21 02:30N 42°22' W 071°02'0 0.0
2018-Apr-21 01:29N 42°22' W 071°02'0 7.2
2018-Apr-21 01:29N 42°22' W 071°02'0 0.0
2018-Apr-21 00:23N 42°22' W 071°02'021.6
2018-Apr-21 00:23N 42°22' W 071°02'0 0.0
2018-Apr-20 23:58N 42°22' W 071°02'032.4
2018-Apr-20 23:58N 42°22' W 071°02'0 0.0
2018-Apr-20 23:21N 42°22' W 071°02'0 7.2
2018-Apr-20 23:21N 42°22' W 071°02'0 0.0
2018-Apr-20 22:57N 42°22' W 071°02'0 5.4
2018-Apr-20 22:57N 42°22' W 071°02'0 0.0
2018-Apr-20 22:26N 42°22' W 071°02'014.4
2018-Apr-20 22:26N 42°22' W 071°02'0 0.2
2018-Apr-20 21:57N 42°22' W 071°02'4 7.4
2018-Apr-20 21:28N 42°20' W 070°57'412914.8
2018-Apr-20 21:28N 42°22' W 071°02'5 9.0
2018-Apr-20 20:56N 42°22' W 070°56'518.6
2018-Apr-20 20:41N 42°22' W 071°02'0 0.0
2018-Apr-20 20:27N 42°22' W 071°02'1906.9
2018-Apr-20 20:27N 42°21' W 071°01'1 2.7
2018-Apr-20 19:59N 42°22' W 071°02'1 6.0
2018-Apr-20 19:47N 42°21' W 071°02'1 1.5
2018-Apr-20 19:20N 42°21' W 071°02'1 4.5
2018-Apr-20 19:11N 42°22' W 071°02'0 0.0
2018-Apr-20 18:56N 42°22' W 071°02'0 0.0
2018-Apr-20 18:25N 42°22' W 071°02'0 3.9
2018-Apr-20 18:25N 42°22' W 071°02'0 0.0
2018-Apr-20 17:53N 42°22' W 071°02'021.6
2018-Apr-20 17:53N 42°22' W 071°02'0 0.0
2018-Apr-20 17:08N 42°22' W 071°02'032.4
2018-Apr-20 17:08N 42°22' W 071°02'0 0.0
2018-Apr-20 16:50N 42°22' W 071°02'013.0
2018-Apr-20 16:50N 42°22' W 071°02'0 0.0
2018-Apr-20 16:21N 42°22' W 071°02'016.2
2018-Apr-20 16:21N 42°22' W 071°02'0 0.0
2018-Apr-20 15:58N 42°22' W 071°02'0 0.0
2018-Apr-20 15:29N 42°22' W 071°02'013.0
2018-Apr-20 15:29N 42°22' W 071°02'0 0.0
2018-Apr-20 14:56N 42°22' W 071°02'010.8
2018-Apr-20 14:56N 42°22' W 071°02'0 0.0
2018-Apr-20 14:15N 42°22' W 071°02'064.8
2018-Apr-20 14:15N 42°22' W 071°02'0 0.0
2018-Apr-20 13:53N 42°22' W 071°02'010.8
2018-Apr-20 13:53N 42°22' W 071°02'0 0.0
2018-Apr-20 13:29N 42°22' W 071°02'0272.5
2018-Apr-20 13:29N 42°22' W 071°02'0 0.1
2018-Apr-20 12:59N 42°22' W 071°02'0 6.1
2018-Apr-20 12:57N 42°22' W 071°02'1 3.0
2018-Apr-20 12:30N 42°23' W 071°03'1 4.3
2018-Apr-20 12:12N 42°22' W 071°02'0 0.0
2018-Apr-20 11:43N 42°22' W 071°02'0 9.0
2018-Apr-20 11:43N 42°22' W 071°02'0 0.0
2018-Apr-20 11:22N 42°22' W 071°02'413.7
2018-Apr-20 11:04N 42°20' W 070°57'442.4
2018-Apr-20 10:59N 42°22' W 071°02'423.8
2018-Apr-20 10:49N 42°20' W 070°57'3 9.8
2018-Apr-20 10:30N 42°22' W 070°54'676.1
2018-Apr-20 10:25N 42°22' W 071°02'1125.9
2018-Apr-20 10:00N 42°24' W 070°48'1135.4
2018-Apr-20 09:42N 42°22' W 071°02'0 0.0
2018-Apr-20 09:30N 42°22' W 071°02'7404.3
2018-Apr-20 09:29N 42°23' W 070°53'714.5
2018-Apr-20 09:00N 42°22' W 071°02'034.5
2018-Apr-20 09:00N 42°22' W 071°02'0 0.0
2018-Apr-20 08:21N 42°22' W 071°02'0 0.1
2018-Apr-20 08:14N 42°22' W 071°02'0 0.0
2018-Apr-20 07:57N 42°22' W 071°02'0 0.2
2018-Apr-20 07:51N 42°22' W 071°02'0 0.0
2018-Apr-20 07:26N 42°22' W 071°02'0 0.0
2018-Apr-20 07:00N 42°22' W 071°02'064.8
2018-Apr-20 07:00N 42°22' W 071°02'0 0.0
2018-Apr-20 06:30N 42°22' W 071°02'010.8
2018-Apr-20 06:30N 42°22' W 071°02'0 0.0
2018-Apr-20 06:00N 42°22' W 071°02'0 0.0
2018-Apr-20 05:30N 42°22' W 071°02'064.8
2018-Apr-20 05:30N 42°22' W 071°02'0 0.0
2018-Apr-20 05:01N 42°22' W 071°02'010.8
2018-Apr-20 05:00N 42°22' W 071°02'0 0.0
2018-Apr-20 04:30N 42°22' W 071°02'0 0.0
2018-Apr-20 04:01N 42°22' W 071°02'0 3.4
2018-Apr-20 04:00N 42°22' W 071°02'1 1.1
2018-Apr-20 03:30N 42°21' W 071°02'1373.6
2018-Apr-20 03:30N 42°22' W 071°02'4 8.3
2018-Apr-20 03:01N 42°21' W 070°57'42132.2
2018-Apr-20 03:00N 42°22' W 071°02'4 8.4
2018-Apr-20 02:31N 42°20' W 070°57'45038.1
2018-Apr-20 02:30N 42°22' W 071°02'0 0.0
2018-Apr-20 01:59N 42°22' W 071°02'11413.8
2018-Apr-20 01:59N 42°21' W 071°02'1 2.5
2018-Apr-20 01:30N 42°22' W 071°02'1849.8
2018-Apr-20 01:30N 42°21' W 071°02'1 2.4
2018-Apr-20 01:00N 42°22' W 071°02'0 0.0
2018-Apr-20 00:30N 42°22' W 071°02'016.2
2018-Apr-20 00:30N 42°22' W 071°02'0 0.0
2018-Apr-20 00:00N 42°22' W 071°02'010.8
2018-Apr-20 00:00N 42°22' W 071°02'0 0.0
2018-Apr-19 23:30N 42°22' W 071°02'0 5.4
2018-Apr-19 23:30N 42°22' W 071°02'0 0.0
2018-Apr-19 22:59N 42°22' W 071°02'010.8
2018-Apr-19 22:59N 42°22' W 071°02'0 0.0
2018-Apr-19 22:30N 42°22' W 071°02'013.0
2018-Apr-19 22:30N 42°22' W 071°02'0 0.0
2018-Apr-19 22:00N 42°22' W 071°02'064.8
2018-Apr-19 22:00N 42°22' W 071°02'0 0.0
2018-Apr-19 21:30N 42°22' W 071°02'064.8
2018-Apr-19 21:29N 42°22' W 071°02'0 0.0
2018-Apr-19 21:00N 42°22' W 071°02'41993.3
2018-Apr-19 20:59N 42°21' W 070°56'4 9.2
2018-Apr-19 20:30N 42°22' W 071°02'1 2.8
2018-Apr-19 19:59N 42°21' W 071°01'11715.9
2018-Apr-19 19:59N 42°22' W 071°02'0 0.0
2018-Apr-19 19:30N 42°22' W 071°02'021.6
2018-Apr-19 19:30N 42°22' W 071°02'0 0.0
2018-Apr-19 19:00N 42°22' W 071°02'013.0
2018-Apr-19 19:00N 42°22' W 071°02'0 0.0
2018-Apr-19 18:30N 42°22' W 071°02'0 0.0
2018-Apr-19 18:00N 42°22' W 071°02'021.6
2018-Apr-19 17:59N 42°22' W 071°02'0 0.0
2018-Apr-19 17:30N 42°22' W 071°02'010.8
2018-Apr-19 17:30N 42°22' W 071°02'0 0.0
2018-Apr-19 17:00N 42°22' W 071°02'021.6
2018-Apr-19 16:59N 42°22' W 071°02'0 0.0
2018-Apr-19 16:30N 42°22' W 071°02'032.4
2018-Apr-19 16:30N 42°22' W 071°02'0 0.0
2018-Apr-19 16:00N 42°22' W 071°02'015.4
2018-Apr-19 16:00N 42°22' W 071°02'0 0.0
2018-Apr-19 15:30N 42°22' W 071°02'064.8
2018-Apr-19 15:30N 42°22' W 071°02'0 0.0
2018-Apr-19 15:00N 42°22' W 071°02'021.6
2018-Apr-19 15:00N 42°22' W 071°02'0 0.0
2018-Apr-19 14:31N 42°22' W 071°02'021.6
2018-Apr-19 14:30N 42°22' W 071°02'0 0.0
2018-Apr-19 14:01N 42°22' W 071°02'032.4
2018-Apr-19 14:00N 42°22' W 071°02'0 0.0
2018-Apr-19 13:31N 42°22' W 071°02'064.8
2018-Apr-19 13:30N 42°22' W 071°02'0 0.0
2018-Apr-19 13:00N 42°22' W 071°02'0 0.0
2018-Apr-19 12:30N 42°22' W 071°02'0 0.0
2018-Apr-19 12:01N 42°22' W 071°02'022.2
2018-Apr-19 12:00N 42°22' W 071°02'0 0.0
2018-Apr-19 11:30N 42°22' W 071°02'0 1.3
2018-Apr-19 11:29N 42°22' W 071°02'0 0.0
2018-Apr-19 11:00N 42°22' W 071°02'11437.0
2018-Apr-19 11:00N 42°21' W 071°02'1 2.4
2018-Apr-19 10:30N 42°22' W 071°02'0 0.0
2018-Apr-19 10:00N 42°22' W 071°02'0 5.3
2018-Apr-19 10:00N 42°22' W 071°02'0 0.0
2018-Apr-19 09:30N 42°22' W 071°02'0 0.0
2018-Apr-19 09:01N 42°22' W 071°02'0 0.5
2018-Apr-19 09:00N 42°22' W 071°02'0 0.0
2018-Apr-19 08:30N 42°22' W 071°02'919.4
2018-Apr-19 08:00N 42°24' W 070°50'103800.4
2018-Apr-19 08:00N 42°22' W 071°02'0 0.0
2018-Apr-19 07:30N 42°22' W 071°02'53170.2
2018-Apr-19 07:30N 42°22' W 070°55'510.4
2018-Apr-19 06:59N 42°22' W 071°02'1547.2
2018-Apr-19 06:59N 42°21' W 071°01'1 1.8
2018-Apr-19 06:29N 42°22' W 071°02'026.9
2018-Apr-19 06:29N 42°22' W 071°02'0 0.0
2018-Apr-19 06:00N 42°22' W 071°02'0 0.2
2018-Apr-19 05:58N 42°22' W 071°02'4 9.0
2018-Apr-19 05:29N 42°21' W 070°56'415366.2
2018-Apr-19 05:29N 42°22' W 071°02'0 0.0
2018-Apr-19 05:01N 42°22' W 071°02'51717.9
2018-Apr-19 05:00N 42°22' W 070°55'510.5
2018-Apr-19 04:30N 42°22' W 071°02'620195.6
2018-Apr-19 04:30N 42°22' W 070°54'610.9
2018-Apr-19 03:59N 42°22' W 071°02'59011.4
2018-Apr-19 03:59N 42°22' W 070°55'4 8.5
2018-Apr-19 03:30N 42°20' W 070°60'27780.9
2018-Apr-19 03:30N 42°22' W 071°02'0 0.0
2018-Apr-19 03:00N 42°22' W 071°02'1806.1
2018-Apr-19 03:00N 42°22' W 071°03'0 0.9
2018-Apr-19 02:30N 42°22' W 071°03'1215.9
2018-Apr-19 02:30N 42°22' W 071°02'0 0.0
2018-Apr-19 02:00N 42°22' W 071°02'0 1.1
2018-Apr-19 01:59N 42°22' W 071°02'0 0.0
2018-Apr-19 01:30N 42°22' W 071°02'0 8.6
2018-Apr-19 01:30N 42°22' W 071°02'0 0.0
2018-Apr-19 01:00N 42°22' W 071°02'021.6
2018-Apr-19 01:00N 42°22' W 071°02'0 0.0
2018-Apr-19 00:30N 42°22' W 071°02'0 1.0
2018-Apr-19 00:29N 42°22' W 071°02'0 0.0
2018-Apr-19 00:00N 42°22' W 071°02'016.2
2018-Apr-19 00:00N 42°22' W 071°02'0 0.0
2018-Apr-18 23:30N 42°22' W 071°02'013.0
2018-Apr-18 23:30N 42°22' W 071°02'0 0.0
2018-Apr-18 23:00N 42°22' W 071°02'2272.4
2018-Apr-18 23:00N 42°20' W 070°60'2 4.3
2018-Apr-18 22:30N 42°22' W 071°02'619981.9
2018-Apr-18 22:30N 42°22' W 070°54'610.8
2018-Apr-18 21:59N 42°22' W 071°02'0 5.4
2018-Apr-18 21:59N 42°22' W 071°02'0 0.0
2018-Apr-18 21:30N 42°22' W 071°02'0 9.0
2018-Apr-18 21:30N 42°22' W 071°02'0 0.0
2018-Apr-18 21:00N 42°22' W 071°02'0 0.3
2018-Apr-18 20:58N 42°22' W 071°02'0 0.0
2018-Apr-18 20:30N 42°22' W 071°02'0 3.5
2018-Apr-18 20:30N 42°22' W 071°02'0 0.0
2018-Apr-18 20:00N 42°22' W 071°02'53390.2
2018-Apr-18 19:59N 42°22' W 070°56'5 9.5
2018-Apr-18 19:30N 42°22' W 071°02'5276.9
2018-Apr-18 19:29N 42°21' W 070°56'5 9.8
2018-Apr-18 19:00N 42°22' W 071°02'1364.4
2018-Apr-18 19:00N 42°21' W 071°01'1 1.4
2018-Apr-18 18:30N 42°22' W 071°02'021.6
2018-Apr-18 18:30N 42°22' W 071°02'0 0.0
2018-Apr-18 17:59N 42°22' W 071°02'021.6
2018-Apr-18 17:59N 42°22' W 071°02'0 0.0
2018-Apr-18 17:31N 42°22' W 071°02'010.8
2018-Apr-18 17:30N 42°22' W 071°02'0 0.0
2018-Apr-18 16:59N 42°22' W 071°02'0 9.3
2018-Apr-18 16:59N 42°22' W 071°02'0 0.0
2018-Apr-18 16:30N 42°22' W 071°02'0 8.6
2018-Apr-18 16:29N 42°22' W 071°02'0 0.0
2018-Apr-18 16:00N 42°22' W 071°02'013.0
2018-Apr-18 16:00N 42°22' W 071°02'0 0.0
2018-Apr-18 15:29N 42°22' W 071°02'310130.7
2018-Apr-18 15:29N 42°20' W 070°59'612.7
2018-Apr-18 15:00N 42°24' W 070°52'8811.2
2018-Apr-18 14:59N 42°22' W 071°02'0 0.0
2018-Apr-18 14:30N 42°22' W 071°02'525.9
2018-Apr-18 14:19N 42°22' W 070°55'515.2
2018-Apr-18 14:00N 42°22' W 071°02'22194.4
2018-Apr-18 14:00N 42°21' W 071°00'2 3.6
2018-Apr-18 13:30N 42°22' W 071°02'0 0.0
2018-Apr-18 13:01N 42°22' W 071°02'0 0.0
2018-Apr-18 12:30N 42°22' W 071°02'0 0.0
2018-Apr-18 11:59N 42°22' W 071°02'0 1.0
2018-Apr-18 11:58N 42°22' W 071°02'0 0.0
2018-Apr-18 11:29N 42°22' W 071°02'0 8.1
2018-Apr-18 11:29N 42°22' W 071°02'0 0.0
2018-Apr-18 11:00N 42°22' W 071°02'021.6
2018-Apr-18 11:00N 42°22' W 071°02'0 0.0
2018-Apr-18 10:30N 42°22' W 071°02'0 0.0
2018-Apr-18 10:00N 42°22' W 071°02'0 8.6
2018-Apr-18 10:00N 42°22' W 071°02'0 0.0
2018-Apr-18 09:30N 42°22' W 071°02'064.8
2018-Apr-18 09:30N 42°22' W 071°02'0 0.0
2018-Apr-18 09:00N 42°22' W 071°02'015.4
2018-Apr-18 09:00N 42°22' W 071°02'0 0.0
2018-Apr-18 08:30N 42°22' W 071°02'0 2.3
2018-Apr-18 08:29N 42°22' W 071°02'0 0.0
2018-Apr-18 08:01N 42°22' W 071°02'014.4
2018-Apr-18 08:00N 42°22' W 071°02'0 0.0
2018-Apr-18 07:30N 42°22' W 071°02'0 0.0
2018-Apr-18 07:00N 42°22' W 071°02'064.8
2018-Apr-18 07:00N 42°22' W 071°02'0 0.0
2018-Apr-18 06:30N 42°22' W 071°02'0 0.0
2018-Apr-18 06:00N 42°22' W 071°02'043.2
2018-Apr-18 06:00N 42°22' W 071°02'0 0.0
2018-Apr-18 05:30N 42°22' W 071°02'0 0.0
2018-Apr-18 04:59N 42°22' W 071°02'14230.2
2018-Apr-18 04:59N 42°21' W 071°02'1 1.3
2018-Apr-18 04:30N 42°21' W 071°01'1 2.5
2018-Apr-18 03:59N 42°22' W 071°02'0 0.0
2018-Apr-18 03:30N 42°22' W 071°02'519342.0
2018-Apr-18 03:30N 42°22' W 070°55'4 8.8
2018-Apr-18 03:00N 42°21' W 071°00'2 3.3
2018-Apr-18 02:29N 42°22' W 071°02'0 0.7
2018-Apr-18 02:01N 42°21' W 071°02'0161.0
2018-Apr-18 02:00N 42°22' W 071°02'0 0.0
2018-Apr-18 01:30N 42°22' W 071°02'0 0.0
2018-Apr-18 00:59N 42°22' W 071°02'026.9
2018-Apr-18 00:59N 42°22' W 071°02'0 0.0
2018-Apr-18 00:30N 42°22' W 071°02'1 2.4
2018-Apr-18 00:00N 42°21' W 071°02'14206.1
2018-Apr-18 00:00N 42°22' W 071°02'1 2.3
2018-Apr-17 23:30N 42°21' W 071°02'1116.2
2018-Apr-17 23:29N 42°22' W 071°02'1 2.4
2018-Apr-17 23:00N 42°21' W 071°02'14206.1
2018-Apr-17 23:00N 42°22' W 071°02'0 0.0
2018-Apr-17 22:30N 42°22' W 071°02'138.6
2018-Apr-17 22:28N 42°21' W 071°02'0 0.0
2018-Apr-17 21:59N 42°21' W 071°02'1 2.4
2018-Apr-17 21:30N 42°22' W 071°02'134.9
2018-Apr-17 21:28N 42°21' W 071°02'1 2.5
2018-Apr-17 21:00N 42°22' W 071°02'013.0
2018-Apr-17 21:00N 42°22' W 071°02'0 0.0
2018-Apr-17 20:30N 42°22' W 071°02'0 0.0
2018-Apr-17 20:00N 42°22' W 071°02'0 0.0
2018-Apr-17 19:29N 42°22' W 071°02'064.8
2018-Apr-17 19:29N 42°22' W 071°02'0 0.0
2018-Apr-17 19:01N 42°22' W 071°02'1349.5
2018-Apr-17 19:00N 42°23' W 071°03'1 1.9
2018-Apr-17 18:30N 42°22' W 071°02'917.1
2018-Apr-17 18:00N 42°24' W 070°51'9616.1
2018-Apr-17 17:59N 42°22' W 071°02'918.0
2018-Apr-17 17:31N 42°23' W 070°50'93110.8
2018-Apr-17 17:30N 42°22' W 071°02'0 0.0
2018-Apr-17 17:00N 42°22' W 071°02'112052.8
2018-Apr-17 17:00N 42°25' W 070°48'1 1.5
2018-Apr-17 16:31N 42°24' W 070°49'10559.3
2018-Apr-17 16:29N 42°22' W 071°02'0 0.0
2018-Apr-17 15:59N 42°22' W 071°02'816.0
2018-Apr-17 15:30N 42°23' W 070°52'81122.9
2018-Apr-17 15:30N 42°22' W 071°02'0 0.0
2018-Apr-17 15:00N 42°22' W 071°02'0 0.0
2018-Apr-17 14:30N 42°22' W 071°02'827819.9
2018-Apr-17 14:30N 42°23' W 070°52'713.4
2018-Apr-17 14:01N 42°21' W 070°60'2479.8
2018-Apr-17 14:00N 42°22' W 071°02'0 0.0
2018-Apr-17 13:30N 42°22' W 071°02'0 0.2
2018-Apr-17 13:28N 42°22' W 071°02'0 0.0
2018-Apr-17 13:00N 42°22' W 071°02'0 6.7
2018-Apr-17 13:00N 42°22' W 071°02'0 0.0
2018-Apr-17 12:30N 42°22' W 071°02'0 0.0
2018-Apr-17 12:00N 42°22' W 071°02'0 3.4
2018-Apr-17 12:00N 42°22' W 071°02'0 0.0
2018-Apr-17 11:30N 42°22' W 071°02'0 0.2
2018-Apr-17 11:29N 42°22' W 071°02'510.1
2018-Apr-17 11:01N 42°22' W 070°55'54273.8
2018-Apr-17 11:00N 42°22' W 071°02'918.7
2018-Apr-17 10:30N 42°23' W 070°50'93353.6
2018-Apr-17 10:30N 42°22' W 071°02'0 0.0
2018-Apr-17 09:59N 42°22' W 071°02'0 0.0
2018-Apr-17 09:30N 42°22' W 071°02'0 0.0
2018-Apr-17 09:01N 42°22' W 071°02'0 0.0
2018-Apr-17 08:29N 42°22' W 071°02'0 0.0
2018-Apr-17 07:59N 42°22' W 071°02'064.8
2018-Apr-17 07:59N 42°22' W 071°02'0 0.0
2018-Apr-17 07:30N 42°22' W 071°02'0 0.0
2018-Apr-17 07:01N 42°22' W 071°02'0 0.0
2018-Apr-17 06:30N 42°22' W 071°02'0 0.0
2018-Apr-17 06:00N 42°22' W 071°02'0 8.6
2018-Apr-17 06:00N 42°22' W 071°02'0 0.0
2018-Apr-17 05:29N 42°22' W 071°02'064.8
2018-Apr-17 05:29N 42°22' W 071°02'0 0.0
2018-Apr-17 04:59N 42°22' W 071°02'0 0.0
2018-Apr-17 04:30N 42°22' W 071°02'064.8
2018-Apr-17 04:30N 42°22' W 071°02'0 0.0
2018-Apr-17 04:00N 42°22' W 071°02'064.8
2018-Apr-17 04:00N 42°22' W 071°02'0 0.0
2018-Apr-17 03:30N 42°22' W 071°02'0 0.0
2018-Apr-17 03:01N 42°22' W 071°02'032.4
2018-Apr-17 03:00N 42°22' W 071°02'0 0.0
2018-Apr-17 02:30N 42°22' W 071°02'0 0.0
2018-Apr-17 02:01N 42°22' W 071°02'0 7.2
2018-Apr-17 02:00N 42°22' W 071°02'0 0.0
2018-Apr-17 01:31N 42°22' W 071°02'0 0.0
2018-Apr-17 01:00N 42°22' W 071°02'0 0.0
2018-Apr-17 00:30N 42°22' W 071°02'0 0.0
2018-Apr-17 00:00N 42°22' W 071°02'0 6.5
2018-Apr-17 00:00N 42°22' W 071°02'0 0.0
2018-Apr-16 23:30N 42°22' W 071°02'0 0.0
2018-Apr-16 23:01N 42°22' W 071°02'032.4
2018-Apr-16 23:01N 42°22' W 071°02'0 0.0
2018-Apr-16 22:30N 42°22' W 071°02'0 0.0
2018-Apr-16 22:00N 42°22' W 071°02'0 5.1
2018-Apr-16 22:00N 42°22' W 071°02'0 0.0
2018-Apr-16 21:30N 42°22' W 071°02'0 0.0
2018-Apr-16 21:00N 42°22' W 071°02'022.2
2018-Apr-16 21:00N 42°22' W 071°02'0 0.0
2018-Apr-16 20:30N 42°22' W 071°02'064.8
2018-Apr-16 20:30N 42°22' W 071°02'0 0.0
2018-Apr-16 20:01N 42°22' W 071°02'0 9.3
2018-Apr-16 20:00N 42°22' W 071°02'0 0.0
2018-Apr-16 19:30N 42°22' W 071°02'0 0.0
2018-Apr-16 19:00N 42°22' W 071°02'010.8
2018-Apr-16 19:00N 42°22' W 071°02'0 0.0
2018-Apr-16 18:30N 42°22' W 071°02'010.8
2018-Apr-16 18:30N 42°22' W 071°02'0 0.0
2018-Apr-16 18:00N 42°22' W 071°02'046.1
2018-Apr-16 18:00N 42°22' W 071°02'0 0.0
2018-Apr-16 17:30N 42°22' W 071°02'043.2
2018-Apr-16 17:30N 42°22' W 071°02'0 0.0
2018-Apr-16 17:01N 42°22' W 071°02'0 0.0
2018-Apr-16 16:30N 42°22' W 071°02'0 0.0
2018-Apr-16 16:01N 42°22' W 071°02'010.8
2018-Apr-16 16:00N 42°22' W 071°02'0 0.0
2018-Apr-16 15:30N 42°22' W 071°02'0 0.0
2018-Apr-16 15:00N 42°22' W 071°02'0 6.2
2018-Apr-16 15:00N 42°22' W 071°02'0 0.0
2018-Apr-16 14:30N 42°22' W 071°02'046.1
2018-Apr-16 14:30N 42°22' W 071°02'0 0.0
2018-Apr-16 14:01N 42°22' W 071°02'1342.1
2018-Apr-16 14:00N 42°23' W 071°03'1 2.7
2018-Apr-16 13:30N 42°22' W 071°02'510.8
2018-Apr-16 13:01N 42°22' W 070°55'5689.4
2018-Apr-16 13:00N 42°22' W 071°02'2 3.8
2018-Apr-16 12:30N 42°21' W 070°60'2 3.8
2018-Apr-16 12:01N 42°22' W 071°02'0371.2
2018-Apr-16 12:00N 42°21' W 071°02'0 0.8
2018-Apr-16 11:30N 42°22' W 071°02'0 0.0
2018-Apr-16 11:00N 42°22' W 071°02'043.2
2018-Apr-16 11:00N 42°22' W 071°02'0 0.0
2018-Apr-16 10:30N 42°22' W 071°02'0 0.0
2018-Apr-16 10:00N 42°22' W 071°02'064.8
2018-Apr-16 10:00N 42°22' W 071°02'0 0.0
2018-Apr-16 09:30N 42°22' W 071°02'043.2
2018-Apr-16 09:30N 42°22' W 071°02'0 0.0
2018-Apr-16 09:01N 42°22' W 071°02'064.8
2018-Apr-16 09:01N 42°22' W 071°02'0 0.0
2018-Apr-16 08:30N 42°22' W 071°02'0 4.3
2018-Apr-16 08:30N 42°22' W 071°02'0 0.0
2018-Apr-16 08:00N 42°22' W 071°02'0 0.0
2018-Apr-16 07:30N 42°22' W 071°02'0 0.0
2018-Apr-16 07:00N 42°22' W 071°02'064.8
2018-Apr-16 07:00N 42°22' W 071°02'0 0.0
2018-Apr-16 06:31N 42°22' W 071°02'0 0.0
2018-Apr-16 06:00N 42°22' W 071°02'064.8
2018-Apr-16 06:00N 42°22' W 071°02'0 0.0
2018-Apr-16 05:30N 42°22' W 071°02'066.7
2018-Apr-16 05:30N 42°22' W 071°02'0 0.0
2018-Apr-16 05:01N 42°22' W 071°02'0 0.0
2018-Apr-16 04:30N 42°22' W 071°02'0 0.0
2018-Apr-16 04:00N 42°22' W 071°02'0 0.0
2018-Apr-16 03:30N 42°22' W 071°02'0 0.0
2018-Apr-16 03:00N 42°22' W 071°02'064.8
2018-Apr-16 03:00N 42°22' W 071°02'0 0.0
2018-Apr-16 02:30N 42°22' W 071°02'0 0.0
2018-Apr-16 02:01N 42°22' W 071°02'  

Dump ship's entire track history